<?xml version="1.0" encoding="UTF-8" standalone="no" ?>
<gpx xmlns="http://www.topografix.com/GPX/1/1" xmlns:xsi="http://www.w3.org/2001/XMLSchema-instance" xsi:schemaLocation="http://www.topografix.com/GPX/1/1 http://www.topografix.com/GPX/1/1/gpx.xsd" version="1.1" creator="VisuGPX - https://www.visugpx.com">
  <metadata>
    <name>Joncas - Grotte des Fées - Castellas Montpeyroux</name>
    <desc><![CDATA[Assez physique dans les bartas]]></desc>
  </metadata>
  <trk>
    <name><![CDATA[06-MARS-16 15:37:45]]></name>
    <trkseg>
      <trkpt lat="43.69733" lon="3.50549">
        <ele>167.89</ele>
        <time>2016-03-06T09:10:11Z</time>
      </trkpt>
      <trkpt lat="43.69739" lon="3.50554">
        <ele>167.41</ele>
        <time>2016-03-06T09:10:24Z</time>
      </trkpt>
      <trkpt lat="43.69752" lon="3.50557">
        <ele>163.56</ele>
        <time>2016-03-06T09:10:41Z</time>
      </trkpt>
      <trkpt lat="43.69762" lon="3.5056">
        <ele>163.56</ele>
        <time>2016-03-06T09:10:50Z</time>
      </trkpt>
      <trkpt lat="43.69774" lon="3.50564">
        <ele>163.56</ele>
        <time>2016-03-06T09:10:59Z</time>
      </trkpt>
      <trkpt lat="43.69786" lon="3.50566">
        <ele>163.08</ele>
        <time>2016-03-06T09:11:08Z</time>
      </trkpt>
      <trkpt lat="43.69797" lon="3.50568">
        <ele>163.08</ele>
        <time>2016-03-06T09:11:17Z</time>
      </trkpt>
      <trkpt lat="43.69808" lon="3.50567">
        <ele>162.6</ele>
        <time>2016-03-06T09:11:25Z</time>
      </trkpt>
      <trkpt lat="43.69838" lon="3.50573">
        <ele>161.16</ele>
        <time>2016-03-06T09:11:33Z</time>
      </trkpt>
      <trkpt lat="43.69849" lon="3.50568">
        <ele>160.68</ele>
        <time>2016-03-06T09:11:41Z</time>
      </trkpt>
      <trkpt lat="43.69862" lon="3.50563">
        <ele>159.72</ele>
        <time>2016-03-06T09:11:51Z</time>
      </trkpt>
      <trkpt lat="43.69872" lon="3.50561">
        <ele>159.24</ele>
        <time>2016-03-06T09:11:57Z</time>
      </trkpt>
      <trkpt lat="43.69882" lon="3.50559">
        <ele>158.75</ele>
        <time>2016-03-06T09:12:05Z</time>
      </trkpt>
      <trkpt lat="43.6989" lon="3.50557">
        <ele>157.31</ele>
        <time>2016-03-06T09:12:13Z</time>
      </trkpt>
      <trkpt lat="43.69901" lon="3.50559">
        <ele>156.83</ele>
        <time>2016-03-06T09:12:21Z</time>
      </trkpt>
      <trkpt lat="43.6991" lon="3.50562">
        <ele>156.35</ele>
        <time>2016-03-06T09:12:29Z</time>
      </trkpt>
      <trkpt lat="43.69919" lon="3.50567">
        <ele>155.87</ele>
        <time>2016-03-06T09:12:37Z</time>
      </trkpt>
      <trkpt lat="43.6993" lon="3.50573">
        <ele>154.91</ele>
        <time>2016-03-06T09:12:45Z</time>
      </trkpt>
      <trkpt lat="43.69939" lon="3.50578">
        <ele>154.43</ele>
        <time>2016-03-06T09:12:53Z</time>
      </trkpt>
      <trkpt lat="43.69949" lon="3.50583">
        <ele>153.95</ele>
        <time>2016-03-06T09:13:01Z</time>
      </trkpt>
      <trkpt lat="43.69959" lon="3.50588">
        <ele>152.99</ele>
        <time>2016-03-06T09:13:09Z</time>
      </trkpt>
      <trkpt lat="43.69968" lon="3.50593">
        <ele>152.51</ele>
        <time>2016-03-06T09:13:16Z</time>
      </trkpt>
      <trkpt lat="43.69977" lon="3.50597">
        <ele>152.03</ele>
        <time>2016-03-06T09:13:23Z</time>
      </trkpt>
      <trkpt lat="43.69987" lon="3.50602">
        <ele>151.54</ele>
        <time>2016-03-06T09:13:31Z</time>
      </trkpt>
      <trkpt lat="43.69996" lon="3.50607">
        <ele>152.03</ele>
        <time>2016-03-06T09:13:39Z</time>
      </trkpt>
      <trkpt lat="43.70006" lon="3.50611">
        <ele>152.03</ele>
        <time>2016-03-06T09:13:46Z</time>
      </trkpt>
      <trkpt lat="43.70016" lon="3.50618">
        <ele>151.54</ele>
        <time>2016-03-06T09:13:54Z</time>
      </trkpt>
      <trkpt lat="43.70027" lon="3.50625">
        <ele>151.06</ele>
        <time>2016-03-06T09:14:03Z</time>
      </trkpt>
      <trkpt lat="43.70038" lon="3.50632">
        <ele>151.54</ele>
        <time>2016-03-06T09:14:11Z</time>
      </trkpt>
      <trkpt lat="43.70043" lon="3.50629">
        <ele>150.58</ele>
        <time>2016-03-06T09:14:23Z</time>
      </trkpt>
      <trkpt lat="43.70039" lon="3.50614">
        <ele>145.78</ele>
        <time>2016-03-06T09:15:14Z</time>
      </trkpt>
      <trkpt lat="43.70031" lon="3.50605">
        <ele>145.3</ele>
        <time>2016-03-06T09:15:22Z</time>
      </trkpt>
      <trkpt lat="43.70021" lon="3.50598">
        <ele>145.3</ele>
        <time>2016-03-06T09:15:30Z</time>
      </trkpt>
      <trkpt lat="43.7002" lon="3.50584">
        <ele>144.82</ele>
        <time>2016-03-06T09:15:37Z</time>
      </trkpt>
      <trkpt lat="43.70023" lon="3.50571">
        <ele>144.82</ele>
        <time>2016-03-06T09:15:44Z</time>
      </trkpt>
      <trkpt lat="43.70026" lon="3.50557">
        <ele>144.82</ele>
        <time>2016-03-06T09:15:52Z</time>
      </trkpt>
      <trkpt lat="43.7003" lon="3.50544">
        <ele>146.26</ele>
        <time>2016-03-06T09:16:00Z</time>
      </trkpt>
      <trkpt lat="43.70037" lon="3.50535">
        <ele>145.3</ele>
        <time>2016-03-06T09:16:08Z</time>
      </trkpt>
      <trkpt lat="43.70044" lon="3.50526">
        <ele>146.26</ele>
        <time>2016-03-06T09:16:15Z</time>
      </trkpt>
      <trkpt lat="43.70051" lon="3.50517">
        <ele>146.26</ele>
        <time>2016-03-06T09:16:22Z</time>
      </trkpt>
      <trkpt lat="43.70058" lon="3.5051">
        <ele>146.26</ele>
        <time>2016-03-06T09:16:29Z</time>
      </trkpt>
      <trkpt lat="43.70066" lon="3.50501">
        <ele>146.74</ele>
        <time>2016-03-06T09:16:37Z</time>
      </trkpt>
      <trkpt lat="43.70073" lon="3.50492">
        <ele>146.26</ele>
        <time>2016-03-06T09:16:44Z</time>
      </trkpt>
      <trkpt lat="43.70079" lon="3.50483">
        <ele>146.74</ele>
        <time>2016-03-06T09:16:51Z</time>
      </trkpt>
      <trkpt lat="43.70086" lon="3.50473">
        <ele>147.22</ele>
        <time>2016-03-06T09:16:58Z</time>
      </trkpt>
      <trkpt lat="43.70092" lon="3.50462">
        <ele>146.26</ele>
        <time>2016-03-06T09:17:06Z</time>
      </trkpt>
      <trkpt lat="43.70097" lon="3.50451">
        <ele>146.74</ele>
        <time>2016-03-06T09:17:13Z</time>
      </trkpt>
      <trkpt lat="43.70101" lon="3.50439">
        <ele>146.74</ele>
        <time>2016-03-06T09:17:20Z</time>
      </trkpt>
      <trkpt lat="43.70106" lon="3.50427">
        <ele>146.74</ele>
        <time>2016-03-06T09:17:27Z</time>
      </trkpt>
      <trkpt lat="43.70111" lon="3.50416">
        <ele>147.22</ele>
        <time>2016-03-06T09:17:34Z</time>
      </trkpt>
      <trkpt lat="43.70116" lon="3.50404">
        <ele>147.7</ele>
        <time>2016-03-06T09:17:42Z</time>
      </trkpt>
      <trkpt lat="43.70121" lon="3.5039">
        <ele>147.7</ele>
        <time>2016-03-06T09:17:50Z</time>
      </trkpt>
      <trkpt lat="43.70124" lon="3.50376">
        <ele>147.22</ele>
        <time>2016-03-06T09:17:58Z</time>
      </trkpt>
      <trkpt lat="43.70125" lon="3.50361">
        <ele>147.7</ele>
        <time>2016-03-06T09:18:06Z</time>
      </trkpt>
      <trkpt lat="43.70125" lon="3.50348">
        <ele>147.7</ele>
        <time>2016-03-06T09:18:13Z</time>
      </trkpt>
      <trkpt lat="43.70125" lon="3.50333">
        <ele>147.7</ele>
        <time>2016-03-06T09:18:21Z</time>
      </trkpt>
      <trkpt lat="43.70126" lon="3.50318">
        <ele>148.18</ele>
        <time>2016-03-06T09:18:29Z</time>
      </trkpt>
      <trkpt lat="43.70127" lon="3.50303">
        <ele>148.18</ele>
        <time>2016-03-06T09:18:37Z</time>
      </trkpt>
      <trkpt lat="43.70128" lon="3.50288">
        <ele>148.18</ele>
        <time>2016-03-06T09:18:45Z</time>
      </trkpt>
      <trkpt lat="43.70128" lon="3.50273">
        <ele>148.66</ele>
        <time>2016-03-06T09:18:53Z</time>
      </trkpt>
      <trkpt lat="43.70129" lon="3.50259">
        <ele>148.66</ele>
        <time>2016-03-06T09:19:01Z</time>
      </trkpt>
      <trkpt lat="43.70134" lon="3.50246">
        <ele>149.14</ele>
        <time>2016-03-06T09:19:09Z</time>
      </trkpt>
      <trkpt lat="43.70139" lon="3.50235">
        <ele>149.62</ele>
        <time>2016-03-06T09:19:17Z</time>
      </trkpt>
      <trkpt lat="43.70146" lon="3.50224">
        <ele>150.1</ele>
        <time>2016-03-06T09:19:25Z</time>
      </trkpt>
      <trkpt lat="43.70153" lon="3.50214">
        <ele>150.1</ele>
        <time>2016-03-06T09:19:33Z</time>
      </trkpt>
      <trkpt lat="43.70159" lon="3.50203">
        <ele>150.58</ele>
        <time>2016-03-06T09:19:41Z</time>
      </trkpt>
      <trkpt lat="43.70165" lon="3.5019">
        <ele>150.58</ele>
        <time>2016-03-06T09:19:49Z</time>
      </trkpt>
      <trkpt lat="43.70172" lon="3.50179">
        <ele>151.06</ele>
        <time>2016-03-06T09:19:57Z</time>
      </trkpt>
      <trkpt lat="43.70177" lon="3.50168">
        <ele>151.06</ele>
        <time>2016-03-06T09:20:05Z</time>
      </trkpt>
      <trkpt lat="43.70185" lon="3.50162">
        <ele>152.03</ele>
        <time>2016-03-06T09:20:13Z</time>
      </trkpt>
      <trkpt lat="43.70194" lon="3.50168">
        <ele>152.51</ele>
        <time>2016-03-06T09:20:21Z</time>
      </trkpt>
      <trkpt lat="43.70202" lon="3.50176">
        <ele>153.47</ele>
        <time>2016-03-06T09:20:29Z</time>
      </trkpt>
      <trkpt lat="43.70211" lon="3.50184">
        <ele>154.43</ele>
        <time>2016-03-06T09:20:38Z</time>
      </trkpt>
      <trkpt lat="43.70219" lon="3.50192">
        <ele>156.83</ele>
        <time>2016-03-06T09:20:47Z</time>
      </trkpt>
      <trkpt lat="43.70228" lon="3.50198">
        <ele>157.79</ele>
        <time>2016-03-06T09:20:56Z</time>
      </trkpt>
      <trkpt lat="43.70237" lon="3.50196">
        <ele>159.72</ele>
        <time>2016-03-06T09:21:06Z</time>
      </trkpt>
      <trkpt lat="43.70247" lon="3.50192">
        <ele>162.12</ele>
        <time>2016-03-06T09:21:16Z</time>
      </trkpt>
      <trkpt lat="43.70253" lon="3.50181">
        <ele>164.04</ele>
        <time>2016-03-06T09:21:26Z</time>
      </trkpt>
      <trkpt lat="43.70257" lon="3.5017">
        <ele>164.04</ele>
        <time>2016-03-06T09:21:35Z</time>
      </trkpt>
      <trkpt lat="43.70262" lon="3.50157">
        <ele>164.52</ele>
        <time>2016-03-06T09:21:44Z</time>
      </trkpt>
      <trkpt lat="43.70267" lon="3.50145">
        <ele>165.48</ele>
        <time>2016-03-06T09:21:52Z</time>
      </trkpt>
      <trkpt lat="43.70271" lon="3.50133">
        <ele>165</ele>
        <time>2016-03-06T09:22:00Z</time>
      </trkpt>
      <trkpt lat="43.70278" lon="3.50125">
        <ele>166.45</ele>
        <time>2016-03-06T09:22:09Z</time>
      </trkpt>
      <trkpt lat="43.70288" lon="3.50128">
        <ele>167.89</ele>
        <time>2016-03-06T09:22:18Z</time>
      </trkpt>
      <trkpt lat="43.70297" lon="3.50132">
        <ele>168.85</ele>
        <time>2016-03-06T09:22:28Z</time>
      </trkpt>
      <trkpt lat="43.70307" lon="3.50136">
        <ele>171.25</ele>
        <time>2016-03-06T09:22:38Z</time>
      </trkpt>
      <trkpt lat="43.70316" lon="3.50141">
        <ele>172.21</ele>
        <time>2016-03-06T09:22:48Z</time>
      </trkpt>
      <trkpt lat="43.70326" lon="3.50144">
        <ele>174.14</ele>
        <time>2016-03-06T09:23:00Z</time>
      </trkpt>
      <trkpt lat="43.70335" lon="3.50149">
        <ele>177.02</ele>
        <time>2016-03-06T09:23:12Z</time>
      </trkpt>
      <trkpt lat="43.70343" lon="3.50153">
        <ele>178.46</ele>
        <time>2016-03-06T09:23:25Z</time>
      </trkpt>
      <trkpt lat="43.70353" lon="3.50154">
        <ele>180.38</ele>
        <time>2016-03-06T09:23:36Z</time>
      </trkpt>
      <trkpt lat="43.70363" lon="3.50152">
        <ele>182.31</ele>
        <time>2016-03-06T09:23:48Z</time>
      </trkpt>
      <trkpt lat="43.70372" lon="3.50145">
        <ele>182.79</ele>
        <time>2016-03-06T09:24:00Z</time>
      </trkpt>
      <trkpt lat="43.70381" lon="3.50139">
        <ele>184.23</ele>
        <time>2016-03-06T09:24:11Z</time>
      </trkpt>
      <trkpt lat="43.70387" lon="3.50129">
        <ele>184.23</ele>
        <time>2016-03-06T09:24:21Z</time>
      </trkpt>
      <trkpt lat="43.70394" lon="3.50126">
        <ele>185.67</ele>
        <time>2016-03-06T09:25:35Z</time>
      </trkpt>
      <trkpt lat="43.70393" lon="3.50124">
        <ele>186.15</ele>
        <time>2016-03-06T09:28:49Z</time>
      </trkpt>
      <trkpt lat="43.70401" lon="3.50121">
        <ele>188.08</ele>
        <time>2016-03-06T09:29:13Z</time>
      </trkpt>
      <trkpt lat="43.7041" lon="3.50124">
        <ele>190.96</ele>
        <time>2016-03-06T09:29:32Z</time>
      </trkpt>
      <trkpt lat="43.7042" lon="3.5012">
        <ele>193.36</ele>
        <time>2016-03-06T09:29:45Z</time>
      </trkpt>
      <trkpt lat="43.70424" lon="3.50111">
        <ele>193.36</ele>
        <time>2016-03-06T09:29:55Z</time>
      </trkpt>
      <trkpt lat="43.70431" lon="3.50099">
        <ele>194.32</ele>
        <time>2016-03-06T09:30:07Z</time>
      </trkpt>
      <trkpt lat="43.70437" lon="3.50088">
        <ele>195.28</ele>
        <time>2016-03-06T09:30:18Z</time>
      </trkpt>
      <trkpt lat="43.70444" lon="3.50077">
        <ele>195.77</ele>
        <time>2016-03-06T09:30:29Z</time>
      </trkpt>
      <trkpt lat="43.70451" lon="3.50067">
        <ele>198.17</ele>
        <time>2016-03-06T09:30:38Z</time>
      </trkpt>
      <trkpt lat="43.70458" lon="3.50058">
        <ele>199.61</ele>
        <time>2016-03-06T09:30:47Z</time>
      </trkpt>
      <trkpt lat="43.70466" lon="3.50048">
        <ele>200.57</ele>
        <time>2016-03-06T09:30:57Z</time>
      </trkpt>
      <trkpt lat="43.70473" lon="3.50038">
        <ele>202.01</ele>
        <time>2016-03-06T09:31:07Z</time>
      </trkpt>
      <trkpt lat="43.70482" lon="3.50032">
        <ele>203.46</ele>
        <time>2016-03-06T09:31:19Z</time>
      </trkpt>
      <trkpt lat="43.70492" lon="3.50031">
        <ele>208.26</ele>
        <time>2016-03-06T09:31:38Z</time>
      </trkpt>
      <trkpt lat="43.70502" lon="3.50035">
        <ele>209.22</ele>
        <time>2016-03-06T09:31:48Z</time>
      </trkpt>
      <trkpt lat="43.70509" lon="3.50043">
        <ele>209.7</ele>
        <time>2016-03-06T09:31:59Z</time>
      </trkpt>
      <trkpt lat="43.70517" lon="3.50052">
        <ele>212.11</ele>
        <time>2016-03-06T09:32:13Z</time>
      </trkpt>
      <trkpt lat="43.7052" lon="3.50064">
        <ele>215.95</ele>
        <time>2016-03-06T09:32:28Z</time>
      </trkpt>
      <trkpt lat="43.70521" lon="3.50078">
        <ele>219.32</ele>
        <time>2016-03-06T09:32:43Z</time>
      </trkpt>
      <trkpt lat="43.70525" lon="3.50091">
        <ele>223.16</ele>
        <time>2016-03-06T09:32:57Z</time>
      </trkpt>
      <trkpt lat="43.70536" lon="3.50093">
        <ele>224.12</ele>
        <time>2016-03-06T09:33:11Z</time>
      </trkpt>
      <trkpt lat="43.70546" lon="3.50096">
        <ele>227.49</ele>
        <time>2016-03-06T09:33:24Z</time>
      </trkpt>
      <trkpt lat="43.70552" lon="3.50105">
        <ele>228.93</ele>
        <time>2016-03-06T09:33:36Z</time>
      </trkpt>
      <trkpt lat="43.70561" lon="3.5011">
        <ele>230.85</ele>
        <time>2016-03-06T09:33:50Z</time>
      </trkpt>
      <trkpt lat="43.70568" lon="3.50112">
        <ele>232.3</ele>
        <time>2016-03-06T09:34:23Z</time>
      </trkpt>
      <trkpt lat="43.70578" lon="3.50111">
        <ele>232.3</ele>
        <time>2016-03-06T09:34:36Z</time>
      </trkpt>
      <trkpt lat="43.70588" lon="3.50108">
        <ele>234.7</ele>
        <time>2016-03-06T09:34:45Z</time>
      </trkpt>
      <trkpt lat="43.70597" lon="3.50104">
        <ele>234.7</ele>
        <time>2016-03-06T09:34:55Z</time>
      </trkpt>
      <trkpt lat="43.70605" lon="3.50098">
        <ele>235.66</ele>
        <time>2016-03-06T09:35:04Z</time>
      </trkpt>
      <trkpt lat="43.70614" lon="3.50093">
        <ele>236.62</ele>
        <time>2016-03-06T09:35:14Z</time>
      </trkpt>
      <trkpt lat="43.70624" lon="3.50089">
        <ele>238.54</ele>
        <time>2016-03-06T09:35:26Z</time>
      </trkpt>
      <trkpt lat="43.70635" lon="3.50086">
        <ele>238.06</ele>
        <time>2016-03-06T09:35:38Z</time>
      </trkpt>
      <trkpt lat="43.70646" lon="3.50083">
        <ele>239.02</ele>
        <time>2016-03-06T09:35:53Z</time>
      </trkpt>
      <trkpt lat="43.70656" lon="3.50081">
        <ele>239.99</ele>
        <time>2016-03-06T09:36:03Z</time>
      </trkpt>
      <trkpt lat="43.70666" lon="3.50076">
        <ele>241.43</ele>
        <time>2016-03-06T09:36:15Z</time>
      </trkpt>
      <trkpt lat="43.70678" lon="3.50075">
        <ele>244.31</ele>
        <time>2016-03-06T09:36:29Z</time>
      </trkpt>
      <trkpt lat="43.70689" lon="3.50074">
        <ele>246.72</ele>
        <time>2016-03-06T09:36:40Z</time>
      </trkpt>
      <trkpt lat="43.70699" lon="3.50076">
        <ele>249.6</ele>
        <time>2016-03-06T09:36:53Z</time>
      </trkpt>
      <trkpt lat="43.70709" lon="3.50072">
        <ele>251.04</ele>
        <time>2016-03-06T09:37:11Z</time>
      </trkpt>
      <trkpt lat="43.70706" lon="3.50078">
        <ele>251.52</ele>
        <time>2016-03-06T09:40:17Z</time>
      </trkpt>
      <trkpt lat="43.70706" lon="3.50092">
        <ele>253.93</ele>
        <time>2016-03-06T09:40:29Z</time>
      </trkpt>
      <trkpt lat="43.70712" lon="3.50105">
        <ele>255.85</ele>
        <time>2016-03-06T09:40:41Z</time>
      </trkpt>
      <trkpt lat="43.70716" lon="3.50119">
        <ele>256.33</ele>
        <time>2016-03-06T09:40:53Z</time>
      </trkpt>
      <trkpt lat="43.70718" lon="3.50134">
        <ele>257.29</ele>
        <time>2016-03-06T09:41:05Z</time>
      </trkpt>
      <trkpt lat="43.70721" lon="3.50147">
        <ele>258.73</ele>
        <time>2016-03-06T09:41:17Z</time>
      </trkpt>
      <trkpt lat="43.70725" lon="3.5016">
        <ele>260.17</ele>
        <time>2016-03-06T09:41:30Z</time>
      </trkpt>
      <trkpt lat="43.70731" lon="3.50166">
        <ele>261.62</ele>
        <time>2016-03-06T09:41:41Z</time>
      </trkpt>
      <trkpt lat="43.7074" lon="3.50162">
        <ele>264.5</ele>
        <time>2016-03-06T09:41:53Z</time>
      </trkpt>
      <trkpt lat="43.70747" lon="3.50157">
        <ele>265.94</ele>
        <time>2016-03-06T09:42:06Z</time>
      </trkpt>
      <trkpt lat="43.70751" lon="3.50169">
        <ele>268.35</ele>
        <time>2016-03-06T09:42:19Z</time>
      </trkpt>
      <trkpt lat="43.70753" lon="3.50183">
        <ele>268.83</ele>
        <time>2016-03-06T09:42:31Z</time>
      </trkpt>
      <trkpt lat="43.70757" lon="3.50197">
        <ele>268.83</ele>
        <time>2016-03-06T09:42:43Z</time>
      </trkpt>
      <trkpt lat="43.70765" lon="3.50205">
        <ele>272.67</ele>
        <time>2016-03-06T09:43:01Z</time>
      </trkpt>
      <trkpt lat="43.70773" lon="3.50209">
        <ele>275.07</ele>
        <time>2016-03-06T09:43:16Z</time>
      </trkpt>
      <trkpt lat="43.70782" lon="3.50217">
        <ele>277.48</ele>
        <time>2016-03-06T09:43:34Z</time>
      </trkpt>
      <trkpt lat="43.7079" lon="3.50228">
        <ele>279.88</ele>
        <time>2016-03-06T09:44:03Z</time>
      </trkpt>
      <trkpt lat="43.70796" lon="3.50237">
        <ele>282.28</ele>
        <time>2016-03-06T09:44:19Z</time>
      </trkpt>
      <trkpt lat="43.70806" lon="3.50241">
        <ele>285.17</ele>
        <time>2016-03-06T09:44:36Z</time>
      </trkpt>
      <trkpt lat="43.70816" lon="3.50245">
        <ele>288.05</ele>
        <time>2016-03-06T09:44:54Z</time>
      </trkpt>
      <trkpt lat="43.70825" lon="3.50249">
        <ele>290.94</ele>
        <time>2016-03-06T09:45:12Z</time>
      </trkpt>
      <trkpt lat="43.70833" lon="3.50245">
        <ele>294.78</ele>
        <time>2016-03-06T09:45:26Z</time>
      </trkpt>
      <trkpt lat="43.70841" lon="3.5024">
        <ele>296.22</ele>
        <time>2016-03-06T09:45:45Z</time>
      </trkpt>
      <trkpt lat="43.70848" lon="3.50248">
        <ele>298.15</ele>
        <time>2016-03-06T09:46:00Z</time>
      </trkpt>
      <trkpt lat="43.70852" lon="3.5026">
        <ele>298.63</ele>
        <time>2016-03-06T09:46:13Z</time>
      </trkpt>
      <trkpt lat="43.70861" lon="3.50261">
        <ele>301.03</ele>
        <time>2016-03-06T09:46:29Z</time>
      </trkpt>
      <trkpt lat="43.7087" lon="3.50264">
        <ele>303.91</ele>
        <time>2016-03-06T09:46:56Z</time>
      </trkpt>
      <trkpt lat="43.70877" lon="3.50274">
        <ele>305.36</ele>
        <time>2016-03-06T09:47:14Z</time>
      </trkpt>
      <trkpt lat="43.70884" lon="3.50281">
        <ele>307.28</ele>
        <time>2016-03-06T09:47:26Z</time>
      </trkpt>
      <trkpt lat="43.70892" lon="3.50284">
        <ele>308.24</ele>
        <time>2016-03-06T09:47:42Z</time>
      </trkpt>
      <trkpt lat="43.70902" lon="3.50278">
        <ele>310.64</ele>
        <time>2016-03-06T09:47:58Z</time>
      </trkpt>
      <trkpt lat="43.7091" lon="3.50286">
        <ele>312.09</ele>
        <time>2016-03-06T09:48:39Z</time>
      </trkpt>
      <trkpt lat="43.70919" lon="3.50294">
        <ele>311.6</ele>
        <time>2016-03-06T09:48:54Z</time>
      </trkpt>
      <trkpt lat="43.70927" lon="3.50297">
        <ele>311.12</ele>
        <time>2016-03-06T09:49:07Z</time>
      </trkpt>
      <trkpt lat="43.70931" lon="3.5031">
        <ele>310.16</ele>
        <time>2016-03-06T09:49:19Z</time>
      </trkpt>
      <trkpt lat="43.70932" lon="3.50323">
        <ele>308.72</ele>
        <time>2016-03-06T09:49:29Z</time>
      </trkpt>
      <trkpt lat="43.70935" lon="3.50336">
        <ele>308.72</ele>
        <time>2016-03-06T09:49:38Z</time>
      </trkpt>
      <trkpt lat="43.70937" lon="3.50349">
        <ele>308.24</ele>
        <time>2016-03-06T09:49:50Z</time>
      </trkpt>
      <trkpt lat="43.70945" lon="3.50358">
        <ele>306.32</ele>
        <time>2016-03-06T09:50:01Z</time>
      </trkpt>
      <trkpt lat="43.70956" lon="3.50356">
        <ele>305.36</ele>
        <time>2016-03-06T09:50:13Z</time>
      </trkpt>
      <trkpt lat="43.70965" lon="3.50354">
        <ele>303.91</ele>
        <time>2016-03-06T09:50:24Z</time>
      </trkpt>
      <trkpt lat="43.70976" lon="3.5035">
        <ele>301.51</ele>
        <time>2016-03-06T09:50:39Z</time>
      </trkpt>
      <trkpt lat="43.70983" lon="3.50342">
        <ele>300.07</ele>
        <time>2016-03-06T09:50:50Z</time>
      </trkpt>
      <trkpt lat="43.70989" lon="3.5033">
        <ele>298.63</ele>
        <time>2016-03-06T09:51:00Z</time>
      </trkpt>
      <trkpt lat="43.70994" lon="3.50316">
        <ele>296.22</ele>
        <time>2016-03-06T09:51:11Z</time>
      </trkpt>
      <trkpt lat="43.71" lon="3.50304">
        <ele>294.3</ele>
        <time>2016-03-06T09:51:21Z</time>
      </trkpt>
      <trkpt lat="43.71005" lon="3.50291">
        <ele>291.42</ele>
        <time>2016-03-06T09:51:31Z</time>
      </trkpt>
      <trkpt lat="43.7101" lon="3.50279">
        <ele>289.49</ele>
        <time>2016-03-06T09:51:41Z</time>
      </trkpt>
      <trkpt lat="43.71015" lon="3.50268">
        <ele>289.01</ele>
        <time>2016-03-06T09:51:51Z</time>
      </trkpt>
      <trkpt lat="43.71022" lon="3.50257">
        <ele>287.09</ele>
        <time>2016-03-06T09:52:00Z</time>
      </trkpt>
      <trkpt lat="43.71028" lon="3.50244">
        <ele>285.65</ele>
        <time>2016-03-06T09:52:10Z</time>
      </trkpt>
      <trkpt lat="43.71034" lon="3.50231">
        <ele>284.21</ele>
        <time>2016-03-06T09:52:20Z</time>
      </trkpt>
      <trkpt lat="43.71041" lon="3.50219">
        <ele>283.25</ele>
        <time>2016-03-06T09:52:29Z</time>
      </trkpt>
      <trkpt lat="43.71047" lon="3.50206">
        <ele>282.28</ele>
        <time>2016-03-06T09:52:40Z</time>
      </trkpt>
      <trkpt lat="43.71052" lon="3.50192">
        <ele>280.36</ele>
        <time>2016-03-06T09:52:52Z</time>
      </trkpt>
      <trkpt lat="43.71059" lon="3.50179">
        <ele>277.96</ele>
        <time>2016-03-06T09:53:03Z</time>
      </trkpt>
      <trkpt lat="43.71065" lon="3.50165">
        <ele>276.04</ele>
        <time>2016-03-06T09:53:15Z</time>
      </trkpt>
      <trkpt lat="43.71071" lon="3.50151">
        <ele>273.63</ele>
        <time>2016-03-06T09:53:25Z</time>
      </trkpt>
      <trkpt lat="43.71076" lon="3.50133">
        <ele>272.67</ele>
        <time>2016-03-06T09:53:39Z</time>
      </trkpt>
      <trkpt lat="43.7108" lon="3.50118">
        <ele>271.71</ele>
        <time>2016-03-06T09:53:49Z</time>
      </trkpt>
      <trkpt lat="43.71084" lon="3.50103">
        <ele>271.23</ele>
        <time>2016-03-06T09:54:00Z</time>
      </trkpt>
      <trkpt lat="43.71089" lon="3.50087">
        <ele>270.27</ele>
        <time>2016-03-06T09:54:12Z</time>
      </trkpt>
      <trkpt lat="43.711" lon="3.50077">
        <ele>267.86</ele>
        <time>2016-03-06T09:54:25Z</time>
      </trkpt>
      <trkpt lat="43.71111" lon="3.5007">
        <ele>264.98</ele>
        <time>2016-03-06T09:54:38Z</time>
      </trkpt>
      <trkpt lat="43.71123" lon="3.50066">
        <ele>262.1</ele>
        <time>2016-03-06T09:54:51Z</time>
      </trkpt>
      <trkpt lat="43.71136" lon="3.50063">
        <ele>260.17</ele>
        <time>2016-03-06T09:55:03Z</time>
      </trkpt>
      <trkpt lat="43.71135" lon="3.50074">
        <ele>258.73</ele>
        <time>2016-03-06T09:55:13Z</time>
      </trkpt>
      <trkpt lat="43.71139" lon="3.50085">
        <ele>255.85</ele>
        <time>2016-03-06T09:55:25Z</time>
      </trkpt>
      <trkpt lat="43.71147" lon="3.50082">
        <ele>253.44</ele>
        <time>2016-03-06T09:55:36Z</time>
      </trkpt>
      <trkpt lat="43.71154" lon="3.50071">
        <ele>252.48</ele>
        <time>2016-03-06T09:55:56Z</time>
      </trkpt>
      <trkpt lat="43.71159" lon="3.50059">
        <ele>252.96</ele>
        <time>2016-03-06T09:56:07Z</time>
      </trkpt>
      <trkpt lat="43.71165" lon="3.50047">
        <ele>251.52</ele>
        <time>2016-03-06T09:56:18Z</time>
      </trkpt>
      <trkpt lat="43.71173" lon="3.50037">
        <ele>248.64</ele>
        <time>2016-03-06T09:56:28Z</time>
      </trkpt>
      <trkpt lat="43.71182" lon="3.50034">
        <ele>246.23</ele>
        <time>2016-03-06T09:56:49Z</time>
      </trkpt>
      <trkpt lat="43.71192" lon="3.5004">
        <ele>245.75</ele>
        <time>2016-03-06T09:56:56Z</time>
      </trkpt>
      <trkpt lat="43.71199" lon="3.50048">
        <ele>246.72</ele>
        <time>2016-03-06T09:57:21Z</time>
      </trkpt>
      <trkpt lat="43.7121" lon="3.50055">
        <ele>245.75</ele>
        <time>2016-03-06T09:57:38Z</time>
      </trkpt>
      <trkpt lat="43.71221" lon="3.50057">
        <ele>246.72</ele>
        <time>2016-03-06T09:58:19Z</time>
      </trkpt>
      <trkpt lat="43.71231" lon="3.50051">
        <ele>246.23</ele>
        <time>2016-03-06T09:58:32Z</time>
      </trkpt>
      <trkpt lat="43.71241" lon="3.50045">
        <ele>245.75</ele>
        <time>2016-03-06T09:58:42Z</time>
      </trkpt>
      <trkpt lat="43.71252" lon="3.50044">
        <ele>246.23</ele>
        <time>2016-03-06T09:58:51Z</time>
      </trkpt>
      <trkpt lat="43.71263" lon="3.50047">
        <ele>245.75</ele>
        <time>2016-03-06T09:59:02Z</time>
      </trkpt>
      <trkpt lat="43.71273" lon="3.50055">
        <ele>249.6</ele>
        <time>2016-03-06T09:59:26Z</time>
      </trkpt>
      <trkpt lat="43.71283" lon="3.50052">
        <ele>250.56</ele>
        <time>2016-03-06T09:59:38Z</time>
      </trkpt>
      <trkpt lat="43.71292" lon="3.5005">
        <ele>249.6</ele>
        <time>2016-03-06T09:59:52Z</time>
      </trkpt>
      <trkpt lat="43.71299" lon="3.50051">
        <ele>251.04</ele>
        <time>2016-03-06T10:00:05Z</time>
      </trkpt>
      <trkpt lat="43.71309" lon="3.50053">
        <ele>251.52</ele>
        <time>2016-03-06T10:00:15Z</time>
      </trkpt>
      <trkpt lat="43.71318" lon="3.50057">
        <ele>251.52</ele>
        <time>2016-03-06T10:00:46Z</time>
      </trkpt>
      <trkpt lat="43.71325" lon="3.50065">
        <ele>252</ele>
        <time>2016-03-06T10:00:56Z</time>
      </trkpt>
      <trkpt lat="43.71332" lon="3.50071">
        <ele>251.04</ele>
        <time>2016-03-06T10:01:10Z</time>
      </trkpt>
      <trkpt lat="43.71344" lon="3.50073">
        <ele>250.56</ele>
        <time>2016-03-06T10:01:29Z</time>
      </trkpt>
      <trkpt lat="43.71352" lon="3.50078">
        <ele>249.12</ele>
        <time>2016-03-06T10:01:42Z</time>
      </trkpt>
      <trkpt lat="43.71361" lon="3.50079">
        <ele>249.12</ele>
        <time>2016-03-06T10:02:25Z</time>
      </trkpt>
      <trkpt lat="43.71362" lon="3.50077">
        <ele>249.12</ele>
        <time>2016-03-06T10:03:27Z</time>
      </trkpt>
      <trkpt lat="43.71368" lon="3.50068">
        <ele>248.16</ele>
        <time>2016-03-06T10:03:41Z</time>
      </trkpt>
      <trkpt lat="43.71373" lon="3.50083">
        <ele>249.12</ele>
        <time>2016-03-06T10:04:24Z</time>
      </trkpt>
      <trkpt lat="43.71384" lon="3.50097">
        <ele>248.16</ele>
        <time>2016-03-06T10:05:01Z</time>
      </trkpt>
      <trkpt lat="43.71391" lon="3.50104">
        <ele>248.64</ele>
        <time>2016-03-06T10:05:20Z</time>
      </trkpt>
      <trkpt lat="43.71404" lon="3.50111">
        <ele>249.12</ele>
        <time>2016-03-06T10:05:44Z</time>
      </trkpt>
      <trkpt lat="43.71414" lon="3.50119">
        <ele>248.64</ele>
        <time>2016-03-06T10:06:00Z</time>
      </trkpt>
      <trkpt lat="43.71425" lon="3.50119">
        <ele>246.23</ele>
        <time>2016-03-06T10:06:13Z</time>
      </trkpt>
      <trkpt lat="43.71433" lon="3.50128">
        <ele>249.6</ele>
        <time>2016-03-06T10:06:30Z</time>
      </trkpt>
      <trkpt lat="43.71444" lon="3.50131">
        <ele>248.64</ele>
        <time>2016-03-06T10:06:45Z</time>
      </trkpt>
      <trkpt lat="43.71455" lon="3.50128">
        <ele>245.75</ele>
        <time>2016-03-06T10:07:08Z</time>
      </trkpt>
      <trkpt lat="43.71466" lon="3.50123">
        <ele>240.95</ele>
        <time>2016-03-06T10:07:27Z</time>
      </trkpt>
      <trkpt lat="43.71475" lon="3.5013">
        <ele>240.95</ele>
        <time>2016-03-06T10:07:56Z</time>
      </trkpt>
      <trkpt lat="43.71481" lon="3.5014">
        <ele>245.75</ele>
        <time>2016-03-06T10:08:25Z</time>
      </trkpt>
      <trkpt lat="43.71486" lon="3.50151">
        <ele>247.68</ele>
        <time>2016-03-06T10:08:43Z</time>
      </trkpt>
      <trkpt lat="43.71495" lon="3.50152">
        <ele>246.23</ele>
        <time>2016-03-06T10:09:04Z</time>
      </trkpt>
      <trkpt lat="43.71503" lon="3.50158">
        <ele>246.72</ele>
        <time>2016-03-06T10:09:17Z</time>
      </trkpt>
      <trkpt lat="43.71512" lon="3.50164">
        <ele>248.64</ele>
        <time>2016-03-06T10:09:28Z</time>
      </trkpt>
      <trkpt lat="43.71522" lon="3.50166">
        <ele>246.23</ele>
        <time>2016-03-06T10:09:50Z</time>
      </trkpt>
      <trkpt lat="43.71533" lon="3.50166">
        <ele>244.79</ele>
        <time>2016-03-06T10:10:32Z</time>
      </trkpt>
      <trkpt lat="43.71539" lon="3.50173">
        <ele>247.68</ele>
        <time>2016-03-06T10:10:50Z</time>
      </trkpt>
      <trkpt lat="43.71546" lon="3.5018">
        <ele>246.23</ele>
        <time>2016-03-06T10:11:14Z</time>
      </trkpt>
      <trkpt lat="43.71555" lon="3.50182">
        <ele>248.16</ele>
        <time>2016-03-06T10:11:27Z</time>
      </trkpt>
      <trkpt lat="43.71566" lon="3.50179">
        <ele>246.23</ele>
        <time>2016-03-06T10:11:41Z</time>
      </trkpt>
      <trkpt lat="43.71575" lon="3.50185">
        <ele>247.2</ele>
        <time>2016-03-06T10:11:55Z</time>
      </trkpt>
      <trkpt lat="43.71586" lon="3.50192">
        <ele>249.12</ele>
        <time>2016-03-06T10:12:11Z</time>
      </trkpt>
      <trkpt lat="43.71596" lon="3.50196">
        <ele>250.56</ele>
        <time>2016-03-06T10:12:22Z</time>
      </trkpt>
      <trkpt lat="43.71606" lon="3.50199">
        <ele>251.04</ele>
        <time>2016-03-06T10:12:32Z</time>
      </trkpt>
      <trkpt lat="43.71615" lon="3.50204">
        <ele>252.48</ele>
        <time>2016-03-06T10:12:44Z</time>
      </trkpt>
      <trkpt lat="43.71625" lon="3.50206">
        <ele>252.96</ele>
        <time>2016-03-06T10:12:56Z</time>
      </trkpt>
      <trkpt lat="43.71635" lon="3.50208">
        <ele>254.41</ele>
        <time>2016-03-06T10:13:09Z</time>
      </trkpt>
      <trkpt lat="43.71644" lon="3.50211">
        <ele>254.41</ele>
        <time>2016-03-06T10:13:20Z</time>
      </trkpt>
      <trkpt lat="43.71653" lon="3.50212">
        <ele>252.48</ele>
        <time>2016-03-06T10:13:31Z</time>
      </trkpt>
      <trkpt lat="43.71663" lon="3.50218">
        <ele>252.96</ele>
        <time>2016-03-06T10:13:49Z</time>
      </trkpt>
      <trkpt lat="43.71669" lon="3.50228">
        <ele>254.41</ele>
        <time>2016-03-06T10:14:00Z</time>
      </trkpt>
      <trkpt lat="43.71679" lon="3.50231">
        <ele>254.89</ele>
        <time>2016-03-06T10:14:13Z</time>
      </trkpt>
      <trkpt lat="43.7169" lon="3.50236">
        <ele>256.81</ele>
        <time>2016-03-06T10:14:29Z</time>
      </trkpt>
      <trkpt lat="43.717" lon="3.5024">
        <ele>255.37</ele>
        <time>2016-03-06T10:14:42Z</time>
      </trkpt>
      <trkpt lat="43.71709" lon="3.50248">
        <ele>255.85</ele>
        <time>2016-03-06T10:14:54Z</time>
      </trkpt>
      <trkpt lat="43.71719" lon="3.50252">
        <ele>256.81</ele>
        <time>2016-03-06T10:15:05Z</time>
      </trkpt>
      <trkpt lat="43.7173" lon="3.50248">
        <ele>255.37</ele>
        <time>2016-03-06T10:15:18Z</time>
      </trkpt>
      <trkpt lat="43.71738" lon="3.50239">
        <ele>253.44</ele>
        <time>2016-03-06T10:15:37Z</time>
      </trkpt>
      <trkpt lat="43.71742" lon="3.50226">
        <ele>250.08</ele>
        <time>2016-03-06T10:15:52Z</time>
      </trkpt>
      <trkpt lat="43.71751" lon="3.50224">
        <ele>249.12</ele>
        <time>2016-03-06T10:16:04Z</time>
      </trkpt>
      <trkpt lat="43.71759" lon="3.50216">
        <ele>244.31</ele>
        <time>2016-03-06T10:16:20Z</time>
      </trkpt>
      <trkpt lat="43.7177" lon="3.50215">
        <ele>244.31</ele>
        <time>2016-03-06T10:16:43Z</time>
      </trkpt>
      <trkpt lat="43.71776" lon="3.50204">
        <ele>242.39</ele>
        <time>2016-03-06T10:17:56Z</time>
      </trkpt>
      <trkpt lat="43.71785" lon="3.502">
        <ele>241.91</ele>
        <time>2016-03-06T10:18:06Z</time>
      </trkpt>
      <trkpt lat="43.71794" lon="3.50193">
        <ele>243.83</ele>
        <time>2016-03-06T10:18:15Z</time>
      </trkpt>
      <trkpt lat="43.71804" lon="3.50183">
        <ele>244.79</ele>
        <time>2016-03-06T10:18:24Z</time>
      </trkpt>
      <trkpt lat="43.7181" lon="3.50172">
        <ele>244.79</ele>
        <time>2016-03-06T10:18:32Z</time>
      </trkpt>
      <trkpt lat="43.71816" lon="3.50162">
        <ele>245.27</ele>
        <time>2016-03-06T10:18:40Z</time>
      </trkpt>
      <trkpt lat="43.71821" lon="3.50149">
        <ele>245.75</ele>
        <time>2016-03-06T10:18:51Z</time>
      </trkpt>
      <trkpt lat="43.71828" lon="3.5014">
        <ele>247.2</ele>
        <time>2016-03-06T10:19:04Z</time>
      </trkpt>
      <trkpt lat="43.71838" lon="3.50134">
        <ele>245.27</ele>
        <time>2016-03-06T10:19:15Z</time>
      </trkpt>
      <trkpt lat="43.71848" lon="3.5013">
        <ele>246.72</ele>
        <time>2016-03-06T10:19:27Z</time>
      </trkpt>
      <trkpt lat="43.71856" lon="3.50119">
        <ele>246.72</ele>
        <time>2016-03-06T10:19:39Z</time>
      </trkpt>
      <trkpt lat="43.71865" lon="3.50112">
        <ele>247.68</ele>
        <time>2016-03-06T10:19:48Z</time>
      </trkpt>
      <trkpt lat="43.71874" lon="3.50105">
        <ele>249.6</ele>
        <time>2016-03-06T10:20:00Z</time>
      </trkpt>
      <trkpt lat="43.71886" lon="3.50103">
        <ele>248.64</ele>
        <time>2016-03-06T10:20:13Z</time>
      </trkpt>
      <trkpt lat="43.71898" lon="3.50096">
        <ele>248.64</ele>
        <time>2016-03-06T10:20:23Z</time>
      </trkpt>
      <trkpt lat="43.71908" lon="3.50087">
        <ele>248.64</ele>
        <time>2016-03-06T10:20:32Z</time>
      </trkpt>
      <trkpt lat="43.71912" lon="3.50074">
        <ele>248.64</ele>
        <time>2016-03-06T10:20:43Z</time>
      </trkpt>
      <trkpt lat="43.71915" lon="3.50059">
        <ele>249.6</ele>
        <time>2016-03-06T10:20:55Z</time>
      </trkpt>
      <trkpt lat="43.71916" lon="3.50042">
        <ele>248.64</ele>
        <time>2016-03-06T10:21:07Z</time>
      </trkpt>
      <trkpt lat="43.71922" lon="3.50023">
        <ele>248.16</ele>
        <time>2016-03-06T10:21:23Z</time>
      </trkpt>
      <trkpt lat="43.71929" lon="3.50005">
        <ele>250.08</ele>
        <time>2016-03-06T10:21:38Z</time>
      </trkpt>
      <trkpt lat="43.71936" lon="3.49989">
        <ele>252.48</ele>
        <time>2016-03-06T10:21:51Z</time>
      </trkpt>
      <trkpt lat="43.7194" lon="3.4997">
        <ele>252.96</ele>
        <time>2016-03-06T10:22:02Z</time>
      </trkpt>
      <trkpt lat="43.71948" lon="3.49951">
        <ele>252.96</ele>
        <time>2016-03-06T10:22:13Z</time>
      </trkpt>
      <trkpt lat="43.71958" lon="3.49942">
        <ele>253.44</ele>
        <time>2016-03-06T10:22:23Z</time>
      </trkpt>
      <trkpt lat="43.7197" lon="3.49932">
        <ele>254.41</ele>
        <time>2016-03-06T10:22:33Z</time>
      </trkpt>
      <trkpt lat="43.71978" lon="3.49933">
        <ele>253.93</ele>
        <time>2016-03-06T10:22:42Z</time>
      </trkpt>
      <trkpt lat="43.71987" lon="3.49937">
        <ele>253.93</ele>
        <time>2016-03-06T10:22:50Z</time>
      </trkpt>
      <trkpt lat="43.71997" lon="3.49943">
        <ele>254.41</ele>
        <time>2016-03-06T10:23:01Z</time>
      </trkpt>
      <trkpt lat="43.72006" lon="3.49949">
        <ele>253.44</ele>
        <time>2016-03-06T10:23:12Z</time>
      </trkpt>
      <trkpt lat="43.72015" lon="3.49958">
        <ele>254.89</ele>
        <time>2016-03-06T10:23:25Z</time>
      </trkpt>
      <trkpt lat="43.72025" lon="3.49965">
        <ele>253.93</ele>
        <time>2016-03-06T10:23:39Z</time>
      </trkpt>
      <trkpt lat="43.72035" lon="3.4997">
        <ele>254.41</ele>
        <time>2016-03-06T10:23:50Z</time>
      </trkpt>
      <trkpt lat="43.72046" lon="3.49966">
        <ele>255.85</ele>
        <time>2016-03-06T10:24:02Z</time>
      </trkpt>
      <trkpt lat="43.72059" lon="3.49963">
        <ele>255.85</ele>
        <time>2016-03-06T10:24:12Z</time>
      </trkpt>
      <trkpt lat="43.7207" lon="3.49959">
        <ele>257.29</ele>
        <time>2016-03-06T10:24:26Z</time>
      </trkpt>
      <trkpt lat="43.72082" lon="3.49958">
        <ele>258.25</ele>
        <time>2016-03-06T10:24:38Z</time>
      </trkpt>
      <trkpt lat="43.72094" lon="3.49963">
        <ele>254.89</ele>
        <time>2016-03-06T10:24:46Z</time>
      </trkpt>
      <trkpt lat="43.72103" lon="3.49973">
        <ele>253.93</ele>
        <time>2016-03-06T10:24:56Z</time>
      </trkpt>
      <trkpt lat="43.72115" lon="3.49985">
        <ele>254.89</ele>
        <time>2016-03-06T10:25:33Z</time>
      </trkpt>
      <trkpt lat="43.72117" lon="3.49998">
        <ele>254.89</ele>
        <time>2016-03-06T10:25:44Z</time>
      </trkpt>
      <trkpt lat="43.72122" lon="3.50013">
        <ele>255.85</ele>
        <time>2016-03-06T10:25:57Z</time>
      </trkpt>
      <trkpt lat="43.72128" lon="3.50024">
        <ele>257.29</ele>
        <time>2016-03-06T10:26:07Z</time>
      </trkpt>
      <trkpt lat="43.72135" lon="3.50032">
        <ele>257.29</ele>
        <time>2016-03-06T10:26:15Z</time>
      </trkpt>
      <trkpt lat="43.72139" lon="3.50045">
        <ele>256.81</ele>
        <time>2016-03-06T10:26:25Z</time>
      </trkpt>
      <trkpt lat="43.72142" lon="3.50061">
        <ele>258.25</ele>
        <time>2016-03-06T10:26:39Z</time>
      </trkpt>
      <trkpt lat="43.72147" lon="3.50075">
        <ele>259.21</ele>
        <time>2016-03-06T10:26:57Z</time>
      </trkpt>
      <trkpt lat="43.72156" lon="3.50088">
        <ele>261.14</ele>
        <time>2016-03-06T10:27:11Z</time>
      </trkpt>
      <trkpt lat="43.72163" lon="3.50098">
        <ele>260.65</ele>
        <time>2016-03-06T10:27:22Z</time>
      </trkpt>
      <trkpt lat="43.72167" lon="3.5011">
        <ele>261.14</ele>
        <time>2016-03-06T10:27:34Z</time>
      </trkpt>
      <trkpt lat="43.72173" lon="3.50124">
        <ele>260.17</ele>
        <time>2016-03-06T10:27:45Z</time>
      </trkpt>
      <trkpt lat="43.72183" lon="3.50135">
        <ele>261.14</ele>
        <time>2016-03-06T10:27:56Z</time>
      </trkpt>
      <trkpt lat="43.72192" lon="3.50146">
        <ele>261.14</ele>
        <time>2016-03-06T10:28:06Z</time>
      </trkpt>
      <trkpt lat="43.72199" lon="3.50157">
        <ele>261.62</ele>
        <time>2016-03-06T10:28:15Z</time>
      </trkpt>
      <trkpt lat="43.72209" lon="3.50164">
        <ele>263.54</ele>
        <time>2016-03-06T10:28:24Z</time>
      </trkpt>
      <trkpt lat="43.72219" lon="3.50166">
        <ele>264.02</ele>
        <time>2016-03-06T10:28:32Z</time>
      </trkpt>
      <trkpt lat="43.7223" lon="3.50166">
        <ele>262.1</ele>
        <time>2016-03-06T10:28:41Z</time>
      </trkpt>
      <trkpt lat="43.72242" lon="3.50169">
        <ele>262.58</ele>
        <time>2016-03-06T10:28:49Z</time>
      </trkpt>
      <trkpt lat="43.72251" lon="3.50173">
        <ele>264.5</ele>
        <time>2016-03-06T10:28:59Z</time>
      </trkpt>
      <trkpt lat="43.72261" lon="3.50178">
        <ele>263.06</ele>
        <time>2016-03-06T10:29:07Z</time>
      </trkpt>
      <trkpt lat="43.72272" lon="3.50178">
        <ele>263.54</ele>
        <time>2016-03-06T10:29:17Z</time>
      </trkpt>
      <trkpt lat="43.72281" lon="3.50186">
        <ele>264.98</ele>
        <time>2016-03-06T10:29:25Z</time>
      </trkpt>
      <trkpt lat="43.72291" lon="3.5019">
        <ele>265.46</ele>
        <time>2016-03-06T10:29:33Z</time>
      </trkpt>
      <trkpt lat="43.72301" lon="3.50193">
        <ele>264.5</ele>
        <time>2016-03-06T10:29:42Z</time>
      </trkpt>
      <trkpt lat="43.72311" lon="3.50195">
        <ele>264.98</ele>
        <time>2016-03-06T10:29:49Z</time>
      </trkpt>
      <trkpt lat="43.72323" lon="3.50197">
        <ele>267.38</ele>
        <time>2016-03-06T10:29:57Z</time>
      </trkpt>
      <trkpt lat="43.72334" lon="3.50202">
        <ele>265.94</ele>
        <time>2016-03-06T10:30:07Z</time>
      </trkpt>
      <trkpt lat="43.72344" lon="3.50207">
        <ele>267.86</ele>
        <time>2016-03-06T10:30:16Z</time>
      </trkpt>
      <trkpt lat="43.72354" lon="3.50211">
        <ele>269.31</ele>
        <time>2016-03-06T10:30:25Z</time>
      </trkpt>
      <trkpt lat="43.72364" lon="3.50212">
        <ele>264.98</ele>
        <time>2016-03-06T10:30:36Z</time>
      </trkpt>
      <trkpt lat="43.72377" lon="3.50219">
        <ele>267.38</ele>
        <time>2016-03-06T10:30:47Z</time>
      </trkpt>
      <trkpt lat="43.72392" lon="3.50228">
        <ele>267.38</ele>
        <time>2016-03-06T10:30:58Z</time>
      </trkpt>
      <trkpt lat="43.72403" lon="3.50239">
        <ele>266.9</ele>
        <time>2016-03-06T10:31:07Z</time>
      </trkpt>
      <trkpt lat="43.72416" lon="3.5024">
        <ele>268.35</ele>
        <time>2016-03-06T10:31:18Z</time>
      </trkpt>
      <trkpt lat="43.72432" lon="3.50238">
        <ele>267.86</ele>
        <time>2016-03-06T10:31:33Z</time>
      </trkpt>
      <trkpt lat="43.72443" lon="3.50234">
        <ele>271.23</ele>
        <time>2016-03-06T10:32:26Z</time>
      </trkpt>
      <trkpt lat="43.72451" lon="3.50234">
        <ele>272.19</ele>
        <time>2016-03-06T10:32:35Z</time>
      </trkpt>
      <trkpt lat="43.72462" lon="3.50235">
        <ele>273.15</ele>
        <time>2016-03-06T10:32:48Z</time>
      </trkpt>
      <trkpt lat="43.72474" lon="3.5023">
        <ele>274.11</ele>
        <time>2016-03-06T10:33:04Z</time>
      </trkpt>
      <trkpt lat="43.72487" lon="3.5023">
        <ele>277</ele>
        <time>2016-03-06T10:33:16Z</time>
      </trkpt>
      <trkpt lat="43.72499" lon="3.50232">
        <ele>277</ele>
        <time>2016-03-06T10:33:28Z</time>
      </trkpt>
      <trkpt lat="43.72508" lon="3.50229">
        <ele>275.07</ele>
        <time>2016-03-06T10:33:38Z</time>
      </trkpt>
      <trkpt lat="43.72513" lon="3.5024">
        <ele>277.48</ele>
        <time>2016-03-06T10:33:52Z</time>
      </trkpt>
      <trkpt lat="43.72519" lon="3.50252">
        <ele>276.52</ele>
        <time>2016-03-06T10:34:04Z</time>
      </trkpt>
      <trkpt lat="43.72526" lon="3.50271">
        <ele>277.48</ele>
        <time>2016-03-06T10:34:17Z</time>
      </trkpt>
      <trkpt lat="43.72531" lon="3.50287">
        <ele>277.96</ele>
        <time>2016-03-06T10:34:29Z</time>
      </trkpt>
      <trkpt lat="43.72536" lon="3.50299">
        <ele>277.96</ele>
        <time>2016-03-06T10:34:40Z</time>
      </trkpt>
      <trkpt lat="43.72543" lon="3.5031">
        <ele>277.96</ele>
        <time>2016-03-06T10:34:50Z</time>
      </trkpt>
      <trkpt lat="43.7255" lon="3.5032">
        <ele>278.44</ele>
        <time>2016-03-06T10:35:00Z</time>
      </trkpt>
      <trkpt lat="43.7256" lon="3.50328">
        <ele>277.96</ele>
        <time>2016-03-06T10:35:10Z</time>
      </trkpt>
      <trkpt lat="43.72567" lon="3.50336">
        <ele>277.96</ele>
        <time>2016-03-06T10:35:20Z</time>
      </trkpt>
      <trkpt lat="43.72574" lon="3.50347">
        <ele>280.36</ele>
        <time>2016-03-06T10:35:29Z</time>
      </trkpt>
      <trkpt lat="43.72589" lon="3.50352">
        <ele>281.32</ele>
        <time>2016-03-06T10:35:38Z</time>
      </trkpt>
      <trkpt lat="43.726" lon="3.50354">
        <ele>281.32</ele>
        <time>2016-03-06T10:35:49Z</time>
      </trkpt>
      <trkpt lat="43.72605" lon="3.50343">
        <ele>282.77</ele>
        <time>2016-03-06T10:36:01Z</time>
      </trkpt>
      <trkpt lat="43.7261" lon="3.50332">
        <ele>287.57</ele>
        <time>2016-03-06T10:36:18Z</time>
      </trkpt>
      <trkpt lat="43.72617" lon="3.50323">
        <ele>290.94</ele>
        <time>2016-03-06T10:36:37Z</time>
      </trkpt>
      <trkpt lat="43.72622" lon="3.50315">
        <ele>296.7</ele>
        <time>2016-03-06T10:37:11Z</time>
      </trkpt>
      <trkpt lat="43.7262" lon="3.50312">
        <ele>293.82</ele>
        <time>2016-03-06T10:39:20Z</time>
      </trkpt>
      <trkpt lat="43.72625" lon="3.50323">
        <ele>292.86</ele>
        <time>2016-03-06T10:39:33Z</time>
      </trkpt>
      <trkpt lat="43.72632" lon="3.50331">
        <ele>291.9</ele>
        <time>2016-03-06T10:39:47Z</time>
      </trkpt>
      <trkpt lat="43.7264" lon="3.50338">
        <ele>289.49</ele>
        <time>2016-03-06T10:40:00Z</time>
      </trkpt>
      <trkpt lat="43.72636" lon="3.5029">
        <ele>293.34</ele>
        <time>2016-03-06T10:46:46Z</time>
      </trkpt>
      <trkpt lat="43.7262" lon="3.5032">
        <ele>294.78</ele>
        <time>2016-03-06T10:48:53Z</time>
      </trkpt>
      <trkpt lat="43.72614" lon="3.50324">
        <ele>290.46</ele>
        <time>2016-03-06T10:49:50Z</time>
      </trkpt>
      <trkpt lat="43.72608" lon="3.50337">
        <ele>283.73</ele>
        <time>2016-03-06T10:50:14Z</time>
      </trkpt>
      <trkpt lat="43.72603" lon="3.50341">
        <ele>283.25</ele>
        <time>2016-03-06T10:50:35Z</time>
      </trkpt>
      <trkpt lat="43.72602" lon="3.50355">
        <ele>282.77</ele>
        <time>2016-03-06T10:50:57Z</time>
      </trkpt>
      <trkpt lat="43.72608" lon="3.50356">
        <ele>282.77</ele>
        <time>2016-03-06T10:51:54Z</time>
      </trkpt>
      <trkpt lat="43.72611" lon="3.50366">
        <ele>282.28</ele>
        <time>2016-03-06T10:52:10Z</time>
      </trkpt>
      <trkpt lat="43.7262" lon="3.50367">
        <ele>282.28</ele>
        <time>2016-03-06T10:52:44Z</time>
      </trkpt>
      <trkpt lat="43.72622" lon="3.50363">
        <ele>282.77</ele>
        <time>2016-03-06T10:53:59Z</time>
      </trkpt>
      <trkpt lat="43.72621" lon="3.50376">
        <ele>284.21</ele>
        <time>2016-03-06T10:56:18Z</time>
      </trkpt>
      <trkpt lat="43.72623" lon="3.50369">
        <ele>285.17</ele>
        <time>2016-03-06T10:57:26Z</time>
      </trkpt>
      <trkpt lat="43.72624" lon="3.50367">
        <ele>287.09</ele>
        <time>2016-03-06T11:01:19Z</time>
      </trkpt>
      <trkpt lat="43.72625" lon="3.50369">
        <ele>290.94</ele>
        <time>2016-03-06T11:12:10Z</time>
      </trkpt>
      <trkpt lat="43.72627" lon="3.50375">
        <ele>292.38</ele>
        <time>2016-03-06T11:15:07Z</time>
      </trkpt>
      <trkpt lat="43.72621" lon="3.50374">
        <ele>292.86</ele>
        <time>2016-03-06T11:17:02Z</time>
      </trkpt>
      <trkpt lat="43.72628" lon="3.50373">
        <ele>292.38</ele>
        <time>2016-03-06T11:25:30Z</time>
      </trkpt>
      <trkpt lat="43.72625" lon="3.50374">
        <ele>296.22</ele>
        <time>2016-03-06T11:32:11Z</time>
      </trkpt>
      <trkpt lat="43.72629" lon="3.50367">
        <ele>295.74</ele>
        <time>2016-03-06T11:36:10Z</time>
      </trkpt>
      <trkpt lat="43.72635" lon="3.50377">
        <ele>297.67</ele>
        <time>2016-03-06T11:36:22Z</time>
      </trkpt>
      <trkpt lat="43.72637" lon="3.50391">
        <ele>297.18</ele>
        <time>2016-03-06T11:36:32Z</time>
      </trkpt>
      <trkpt lat="43.72641" lon="3.50404">
        <ele>298.63</ele>
        <time>2016-03-06T11:36:47Z</time>
      </trkpt>
      <trkpt lat="43.72638" lon="3.50418">
        <ele>300.07</ele>
        <time>2016-03-06T11:37:00Z</time>
      </trkpt>
      <trkpt lat="43.72643" lon="3.50434">
        <ele>300.07</ele>
        <time>2016-03-06T11:37:20Z</time>
      </trkpt>
      <trkpt lat="43.7265" lon="3.50449">
        <ele>304.39</ele>
        <time>2016-03-06T11:37:45Z</time>
      </trkpt>
      <trkpt lat="43.72645" lon="3.5046">
        <ele>308.24</ele>
        <time>2016-03-06T11:38:32Z</time>
      </trkpt>
      <trkpt lat="43.72648" lon="3.50473">
        <ele>310.64</ele>
        <time>2016-03-06T11:39:18Z</time>
      </trkpt>
      <trkpt lat="43.72646" lon="3.50485">
        <ele>314.01</ele>
        <time>2016-03-06T11:39:41Z</time>
      </trkpt>
      <trkpt lat="43.72638" lon="3.50495">
        <ele>315.45</ele>
        <time>2016-03-06T11:40:29Z</time>
      </trkpt>
      <trkpt lat="43.72629" lon="3.50498">
        <ele>320.26</ele>
        <time>2016-03-06T11:42:12Z</time>
      </trkpt>
      <trkpt lat="43.72624" lon="3.50508">
        <ele>323.14</ele>
        <time>2016-03-06T11:42:59Z</time>
      </trkpt>
      <trkpt lat="43.72615" lon="3.50518">
        <ele>328.43</ele>
        <time>2016-03-06T11:43:29Z</time>
      </trkpt>
      <trkpt lat="43.72612" lon="3.50527">
        <ele>332.75</ele>
        <time>2016-03-06T11:45:00Z</time>
      </trkpt>
      <trkpt lat="43.726" lon="3.50532">
        <ele>338.04</ele>
        <time>2016-03-06T11:45:51Z</time>
      </trkpt>
      <trkpt lat="43.72589" lon="3.50524">
        <ele>340.92</ele>
        <time>2016-03-06T11:46:17Z</time>
      </trkpt>
      <trkpt lat="43.72582" lon="3.5053">
        <ele>345.25</ele>
        <time>2016-03-06T11:47:20Z</time>
      </trkpt>
      <trkpt lat="43.72576" lon="3.5054">
        <ele>349.58</ele>
        <time>2016-03-06T11:48:08Z</time>
      </trkpt>
      <trkpt lat="43.72575" lon="3.50549">
        <ele>351.98</ele>
        <time>2016-03-06T11:49:34Z</time>
      </trkpt>
      <trkpt lat="43.72581" lon="3.50566">
        <ele>352.46</ele>
        <time>2016-03-06T11:50:26Z</time>
      </trkpt>
      <trkpt lat="43.72573" lon="3.50571">
        <ele>356.79</ele>
        <time>2016-03-06T11:51:35Z</time>
      </trkpt>
      <trkpt lat="43.72565" lon="3.50577">
        <ele>362.07</ele>
        <time>2016-03-06T11:53:38Z</time>
      </trkpt>
      <trkpt lat="43.72564" lon="3.5059">
        <ele>368.8</ele>
        <time>2016-03-06T11:54:19Z</time>
      </trkpt>
      <trkpt lat="43.72561" lon="3.50599">
        <ele>372.65</ele>
        <time>2016-03-06T11:55:13Z</time>
      </trkpt>
      <trkpt lat="43.7255" lon="3.50599">
        <ele>377.45</ele>
        <time>2016-03-06T11:55:42Z</time>
      </trkpt>
      <trkpt lat="43.72541" lon="3.50599">
        <ele>382.74</ele>
        <time>2016-03-06T11:56:12Z</time>
      </trkpt>
      <trkpt lat="43.72539" lon="3.5061">
        <ele>385.63</ele>
        <time>2016-03-06T11:56:35Z</time>
      </trkpt>
      <trkpt lat="43.72532" lon="3.50616">
        <ele>390.43</ele>
        <time>2016-03-06T11:57:24Z</time>
      </trkpt>
      <trkpt lat="43.72525" lon="3.50622">
        <ele>396.68</ele>
        <time>2016-03-06T11:57:54Z</time>
      </trkpt>
      <trkpt lat="43.72517" lon="3.50632">
        <ele>401.01</ele>
        <time>2016-03-06T11:58:42Z</time>
      </trkpt>
      <trkpt lat="43.72513" lon="3.50644">
        <ele>404.37</ele>
        <time>2016-03-06T11:59:24Z</time>
      </trkpt>
      <trkpt lat="43.72505" lon="3.50655">
        <ele>407.74</ele>
        <time>2016-03-06T11:59:59Z</time>
      </trkpt>
      <trkpt lat="43.72505" lon="3.50676">
        <ele>409.18</ele>
        <time>2016-03-06T12:00:39Z</time>
      </trkpt>
      <trkpt lat="43.72507" lon="3.5069">
        <ele>415.43</ele>
        <time>2016-03-06T12:01:15Z</time>
      </trkpt>
      <trkpt lat="43.72501" lon="3.50695">
        <ele>422.16</ele>
        <time>2016-03-06T12:01:44Z</time>
      </trkpt>
      <trkpt lat="43.72492" lon="3.50696">
        <ele>430.33</ele>
        <time>2016-03-06T12:02:17Z</time>
      </trkpt>
      <trkpt lat="43.72493" lon="3.50713">
        <ele>429.85</ele>
        <time>2016-03-06T12:03:02Z</time>
      </trkpt>
      <trkpt lat="43.72495" lon="3.50725">
        <ele>434.17</ele>
        <time>2016-03-06T12:03:33Z</time>
      </trkpt>
      <trkpt lat="43.72496" lon="3.50738">
        <ele>435.61</ele>
        <time>2016-03-06T12:03:59Z</time>
      </trkpt>
      <trkpt lat="43.72502" lon="3.50748">
        <ele>439.46</ele>
        <time>2016-03-06T12:04:19Z</time>
      </trkpt>
      <trkpt lat="43.72503" lon="3.50762">
        <ele>435.13</ele>
        <time>2016-03-06T12:05:28Z</time>
      </trkpt>
      <trkpt lat="43.72499" lon="3.50775">
        <ele>430.81</ele>
        <time>2016-03-06T12:05:55Z</time>
      </trkpt>
      <trkpt lat="43.72494" lon="3.50786">
        <ele>433.21</ele>
        <time>2016-03-06T12:06:12Z</time>
      </trkpt>
      <trkpt lat="43.72492" lon="3.508">
        <ele>430.81</ele>
        <time>2016-03-06T12:06:29Z</time>
      </trkpt>
      <trkpt lat="43.72488" lon="3.50817">
        <ele>432.25</ele>
        <time>2016-03-06T12:06:50Z</time>
      </trkpt>
      <trkpt lat="43.72485" lon="3.5083">
        <ele>429.85</ele>
        <time>2016-03-06T12:07:09Z</time>
      </trkpt>
      <trkpt lat="43.72482" lon="3.50844">
        <ele>430.33</ele>
        <time>2016-03-06T12:07:23Z</time>
      </trkpt>
      <trkpt lat="43.72479" lon="3.50858">
        <ele>433.21</ele>
        <time>2016-03-06T12:07:40Z</time>
      </trkpt>
      <trkpt lat="43.72478" lon="3.50873">
        <ele>436.1</ele>
        <time>2016-03-06T12:07:58Z</time>
      </trkpt>
      <trkpt lat="43.72473" lon="3.50886">
        <ele>436.58</ele>
        <time>2016-03-06T12:08:22Z</time>
      </trkpt>
      <trkpt lat="43.72473" lon="3.50902">
        <ele>440.42</ele>
        <time>2016-03-06T12:08:44Z</time>
      </trkpt>
      <trkpt lat="43.72472" lon="3.50915">
        <ele>444.75</ele>
        <time>2016-03-06T12:08:59Z</time>
      </trkpt>
      <trkpt lat="43.72471" lon="3.50928">
        <ele>448.59</ele>
        <time>2016-03-06T12:09:20Z</time>
      </trkpt>
      <trkpt lat="43.72472" lon="3.50937">
        <ele>445.71</ele>
        <time>2016-03-06T12:09:49Z</time>
      </trkpt>
      <trkpt lat="43.72472" lon="3.50951">
        <ele>449.07</ele>
        <time>2016-03-06T12:10:08Z</time>
      </trkpt>
      <trkpt lat="43.72472" lon="3.50966">
        <ele>452.44</ele>
        <time>2016-03-06T12:10:28Z</time>
      </trkpt>
      <trkpt lat="43.72469" lon="3.50981">
        <ele>454.36</ele>
        <time>2016-03-06T12:10:52Z</time>
      </trkpt>
      <trkpt lat="43.72467" lon="3.50995">
        <ele>457.72</ele>
        <time>2016-03-06T12:11:11Z</time>
      </trkpt>
      <trkpt lat="43.72465" lon="3.51013">
        <ele>461.09</ele>
        <time>2016-03-06T12:11:37Z</time>
      </trkpt>
      <trkpt lat="43.72459" lon="3.51027">
        <ele>462.05</ele>
        <time>2016-03-06T12:11:54Z</time>
      </trkpt>
      <trkpt lat="43.72454" lon="3.51044">
        <ele>463.97</ele>
        <time>2016-03-06T12:12:15Z</time>
      </trkpt>
      <trkpt lat="43.72454" lon="3.5105">
        <ele>465.42</ele>
        <time>2016-03-06T12:13:38Z</time>
      </trkpt>
      <trkpt lat="43.72448" lon="3.51055">
        <ele>465.42</ele>
        <time>2016-03-06T12:18:24Z</time>
      </trkpt>
      <trkpt lat="43.7244" lon="3.51066">
        <ele>465.9</ele>
        <time>2016-03-06T12:18:51Z</time>
      </trkpt>
      <trkpt lat="43.72437" lon="3.51084">
        <ele>470.22</ele>
        <time>2016-03-06T12:19:33Z</time>
      </trkpt>
      <trkpt lat="43.72442" lon="3.51101">
        <ele>478.39</ele>
        <time>2016-03-06T12:20:50Z</time>
      </trkpt>
      <trkpt lat="43.72435" lon="3.51125">
        <ele>481.28</ele>
        <time>2016-03-06T12:22:15Z</time>
      </trkpt>
      <trkpt lat="43.72447" lon="3.51144">
        <ele>488.01</ele>
        <time>2016-03-06T12:26:26Z</time>
      </trkpt>
      <trkpt lat="43.72448" lon="3.5116">
        <ele>488.97</ele>
        <time>2016-03-06T12:27:39Z</time>
      </trkpt>
      <trkpt lat="43.72457" lon="3.51167">
        <ele>490.89</ele>
        <time>2016-03-06T12:28:11Z</time>
      </trkpt>
      <trkpt lat="43.72454" lon="3.5118">
        <ele>497.14</ele>
        <time>2016-03-06T12:31:08Z</time>
      </trkpt>
      <trkpt lat="43.72447" lon="3.51193">
        <ele>496.66</ele>
        <time>2016-03-06T12:31:23Z</time>
      </trkpt>
      <trkpt lat="43.72445" lon="3.51213">
        <ele>496.18</ele>
        <time>2016-03-06T12:31:44Z</time>
      </trkpt>
      <trkpt lat="43.72441" lon="3.51229">
        <ele>496.66</ele>
        <time>2016-03-06T12:32:06Z</time>
      </trkpt>
      <trkpt lat="43.72435" lon="3.51247">
        <ele>501.46</ele>
        <time>2016-03-06T12:32:30Z</time>
      </trkpt>
      <trkpt lat="43.7243" lon="3.51267">
        <ele>501.46</ele>
        <time>2016-03-06T12:32:59Z</time>
      </trkpt>
      <trkpt lat="43.72425" lon="3.51284">
        <ele>504.35</ele>
        <time>2016-03-06T12:33:29Z</time>
      </trkpt>
      <trkpt lat="43.7242" lon="3.51295">
        <ele>505.79</ele>
        <time>2016-03-06T12:33:54Z</time>
      </trkpt>
      <trkpt lat="43.72413" lon="3.51308">
        <ele>509.16</ele>
        <time>2016-03-06T12:34:11Z</time>
      </trkpt>
      <trkpt lat="43.72407" lon="3.51322">
        <ele>511.08</ele>
        <time>2016-03-06T12:34:29Z</time>
      </trkpt>
      <trkpt lat="43.72402" lon="3.51337">
        <ele>511.08</ele>
        <time>2016-03-06T12:34:51Z</time>
      </trkpt>
      <trkpt lat="43.72402" lon="3.51349">
        <ele>511.56</ele>
        <time>2016-03-06T12:35:33Z</time>
      </trkpt>
      <trkpt lat="43.72407" lon="3.5136">
        <ele>513.48</ele>
        <time>2016-03-06T12:36:10Z</time>
      </trkpt>
      <trkpt lat="43.72411" lon="3.51373">
        <ele>514.44</ele>
        <time>2016-03-06T12:37:26Z</time>
      </trkpt>
      <trkpt lat="43.72409" lon="3.51389">
        <ele>513.48</ele>
        <time>2016-03-06T12:38:30Z</time>
      </trkpt>
      <trkpt lat="43.72405" lon="3.51402">
        <ele>513</ele>
        <time>2016-03-06T12:38:58Z</time>
      </trkpt>
      <trkpt lat="43.72412" lon="3.51413">
        <ele>513</ele>
        <time>2016-03-06T12:39:21Z</time>
      </trkpt>
      <trkpt lat="43.72417" lon="3.51424">
        <ele>514.92</ele>
        <time>2016-03-06T12:39:42Z</time>
      </trkpt>
      <trkpt lat="43.72416" lon="3.51436">
        <ele>513.96</ele>
        <time>2016-03-06T12:40:06Z</time>
      </trkpt>
      <trkpt lat="43.72412" lon="3.51447">
        <ele>513.96</ele>
        <time>2016-03-06T12:40:25Z</time>
      </trkpt>
      <trkpt lat="43.72413" lon="3.51461">
        <ele>513</ele>
        <time>2016-03-06T12:40:42Z</time>
      </trkpt>
      <trkpt lat="43.72416" lon="3.51467">
        <ele>512.04</ele>
        <time>2016-03-06T12:47:20Z</time>
      </trkpt>
      <trkpt lat="43.72412" lon="3.51479">
        <ele>511.56</ele>
        <time>2016-03-06T12:48:00Z</time>
      </trkpt>
      <trkpt lat="43.72406" lon="3.51491">
        <ele>511.08</ele>
        <time>2016-03-06T12:48:26Z</time>
      </trkpt>
      <trkpt lat="43.72402" lon="3.51502">
        <ele>509.64</ele>
        <time>2016-03-06T12:48:48Z</time>
      </trkpt>
      <trkpt lat="43.72401" lon="3.51514">
        <ele>507.71</ele>
        <time>2016-03-06T12:49:02Z</time>
      </trkpt>
      <trkpt lat="43.72402" lon="3.51527">
        <ele>506.27</ele>
        <time>2016-03-06T12:49:19Z</time>
      </trkpt>
      <trkpt lat="43.72397" lon="3.5154">
        <ele>503.39</ele>
        <time>2016-03-06T12:49:34Z</time>
      </trkpt>
      <trkpt lat="43.72392" lon="3.51551">
        <ele>501.95</ele>
        <time>2016-03-06T12:49:51Z</time>
      </trkpt>
      <trkpt lat="43.72388" lon="3.51565">
        <ele>499.54</ele>
        <time>2016-03-06T12:50:12Z</time>
      </trkpt>
      <trkpt lat="43.7238" lon="3.51569">
        <ele>498.58</ele>
        <time>2016-03-06T12:50:24Z</time>
      </trkpt>
      <trkpt lat="43.72372" lon="3.51564">
        <ele>498.58</ele>
        <time>2016-03-06T12:50:34Z</time>
      </trkpt>
      <trkpt lat="43.72366" lon="3.51565">
        <ele>497.62</ele>
        <time>2016-03-06T12:51:33Z</time>
      </trkpt>
      <trkpt lat="43.72362" lon="3.51556">
        <ele>497.14</ele>
        <time>2016-03-06T12:52:12Z</time>
      </trkpt>
      <trkpt lat="43.72352" lon="3.51554">
        <ele>495.7</ele>
        <time>2016-03-06T12:52:20Z</time>
      </trkpt>
      <trkpt lat="43.72342" lon="3.51553">
        <ele>498.1</ele>
        <time>2016-03-06T12:52:28Z</time>
      </trkpt>
      <trkpt lat="43.72332" lon="3.51555">
        <ele>496.18</ele>
        <time>2016-03-06T12:52:36Z</time>
      </trkpt>
      <trkpt lat="43.72322" lon="3.51558">
        <ele>496.18</ele>
        <time>2016-03-06T12:52:44Z</time>
      </trkpt>
      <trkpt lat="43.72311" lon="3.51557">
        <ele>495.7</ele>
        <time>2016-03-06T12:52:53Z</time>
      </trkpt>
      <trkpt lat="43.72303" lon="3.51551">
        <ele>493.77</ele>
        <time>2016-03-06T12:53:01Z</time>
      </trkpt>
      <trkpt lat="43.72297" lon="3.51542">
        <ele>492.81</ele>
        <time>2016-03-06T12:53:09Z</time>
      </trkpt>
      <trkpt lat="43.72294" lon="3.51529">
        <ele>491.37</ele>
        <time>2016-03-06T12:53:17Z</time>
      </trkpt>
      <trkpt lat="43.72295" lon="3.51516">
        <ele>489.93</ele>
        <time>2016-03-06T12:53:25Z</time>
      </trkpt>
      <trkpt lat="43.72296" lon="3.51503">
        <ele>488.97</ele>
        <time>2016-03-06T12:53:33Z</time>
      </trkpt>
      <trkpt lat="43.72297" lon="3.5149">
        <ele>487.53</ele>
        <time>2016-03-06T12:53:41Z</time>
      </trkpt>
      <trkpt lat="43.72301" lon="3.51478">
        <ele>486.56</ele>
        <time>2016-03-06T12:53:49Z</time>
      </trkpt>
      <trkpt lat="43.72305" lon="3.51466">
        <ele>485.6</ele>
        <time>2016-03-06T12:53:57Z</time>
      </trkpt>
      <trkpt lat="43.72307" lon="3.51453">
        <ele>485.12</ele>
        <time>2016-03-06T12:54:05Z</time>
      </trkpt>
      <trkpt lat="43.72308" lon="3.5144">
        <ele>484.16</ele>
        <time>2016-03-06T12:54:13Z</time>
      </trkpt>
      <trkpt lat="43.72306" lon="3.51425">
        <ele>483.68</ele>
        <time>2016-03-06T12:54:21Z</time>
      </trkpt>
      <trkpt lat="43.72302" lon="3.51414">
        <ele>482.72</ele>
        <time>2016-03-06T12:54:29Z</time>
      </trkpt>
      <trkpt lat="43.72298" lon="3.51402">
        <ele>482.24</ele>
        <time>2016-03-06T12:54:37Z</time>
      </trkpt>
      <trkpt lat="43.72293" lon="3.5139">
        <ele>479.84</ele>
        <time>2016-03-06T12:54:47Z</time>
      </trkpt>
      <trkpt lat="43.72287" lon="3.5138">
        <ele>477.91</ele>
        <time>2016-03-06T12:54:56Z</time>
      </trkpt>
      <trkpt lat="43.72279" lon="3.51373">
        <ele>477.43</ele>
        <time>2016-03-06T12:55:05Z</time>
      </trkpt>
      <trkpt lat="43.72271" lon="3.51366">
        <ele>477.43</ele>
        <time>2016-03-06T12:55:13Z</time>
      </trkpt>
      <trkpt lat="43.72263" lon="3.51359">
        <ele>476.95</ele>
        <time>2016-03-06T12:55:21Z</time>
      </trkpt>
      <trkpt lat="43.72256" lon="3.51351">
        <ele>475.03</ele>
        <time>2016-03-06T12:55:29Z</time>
      </trkpt>
      <trkpt lat="43.72246" lon="3.51343">
        <ele>473.59</ele>
        <time>2016-03-06T12:55:37Z</time>
      </trkpt>
      <trkpt lat="43.72237" lon="3.51339">
        <ele>471.66</ele>
        <time>2016-03-06T12:55:45Z</time>
      </trkpt>
      <trkpt lat="43.72228" lon="3.51335">
        <ele>470.7</ele>
        <time>2016-03-06T12:55:53Z</time>
      </trkpt>
      <trkpt lat="43.72218" lon="3.51335">
        <ele>469.74</ele>
        <time>2016-03-06T12:56:01Z</time>
      </trkpt>
      <trkpt lat="43.72208" lon="3.51335">
        <ele>468.3</ele>
        <time>2016-03-06T12:56:10Z</time>
      </trkpt>
      <trkpt lat="43.722" lon="3.51331">
        <ele>467.34</ele>
        <time>2016-03-06T12:56:18Z</time>
      </trkpt>
      <trkpt lat="43.72192" lon="3.51324">
        <ele>466.38</ele>
        <time>2016-03-06T12:56:26Z</time>
      </trkpt>
      <trkpt lat="43.72183" lon="3.51318">
        <ele>464.45</ele>
        <time>2016-03-06T12:56:35Z</time>
      </trkpt>
      <trkpt lat="43.72177" lon="3.51308">
        <ele>463.49</ele>
        <time>2016-03-06T12:56:43Z</time>
      </trkpt>
      <trkpt lat="43.72174" lon="3.51296">
        <ele>463.49</ele>
        <time>2016-03-06T12:56:52Z</time>
      </trkpt>
      <trkpt lat="43.72174" lon="3.51282">
        <ele>463.01</ele>
        <time>2016-03-06T12:57:01Z</time>
      </trkpt>
      <trkpt lat="43.72167" lon="3.51276">
        <ele>460.13</ele>
        <time>2016-03-06T12:57:10Z</time>
      </trkpt>
      <trkpt lat="43.72157" lon="3.51279">
        <ele>457.72</ele>
        <time>2016-03-06T12:57:18Z</time>
      </trkpt>
      <trkpt lat="43.72149" lon="3.5128">
        <ele>456.76</ele>
        <time>2016-03-06T12:57:26Z</time>
      </trkpt>
      <trkpt lat="43.72139" lon="3.51283">
        <ele>455.8</ele>
        <time>2016-03-06T12:57:34Z</time>
      </trkpt>
      <trkpt lat="43.72129" lon="3.51285">
        <ele>454.36</ele>
        <time>2016-03-06T12:57:43Z</time>
      </trkpt>
      <trkpt lat="43.7212" lon="3.51291">
        <ele>452.44</ele>
        <time>2016-03-06T12:57:51Z</time>
      </trkpt>
      <trkpt lat="43.72112" lon="3.51299">
        <ele>452.44</ele>
        <time>2016-03-06T12:57:59Z</time>
      </trkpt>
      <trkpt lat="43.72104" lon="3.51305">
        <ele>451.96</ele>
        <time>2016-03-06T12:58:07Z</time>
      </trkpt>
      <trkpt lat="43.72094" lon="3.51308">
        <ele>449.07</ele>
        <time>2016-03-06T12:58:15Z</time>
      </trkpt>
      <trkpt lat="43.72084" lon="3.51312">
        <ele>448.59</ele>
        <time>2016-03-06T12:58:23Z</time>
      </trkpt>
      <trkpt lat="43.72075" lon="3.51318">
        <ele>447.63</ele>
        <time>2016-03-06T12:58:31Z</time>
      </trkpt>
      <trkpt lat="43.72066" lon="3.51321">
        <ele>447.15</ele>
        <time>2016-03-06T12:58:39Z</time>
      </trkpt>
      <trkpt lat="43.72057" lon="3.51325">
        <ele>445.71</ele>
        <time>2016-03-06T12:58:47Z</time>
      </trkpt>
      <trkpt lat="43.72049" lon="3.51329">
        <ele>444.75</ele>
        <time>2016-03-06T12:58:54Z</time>
      </trkpt>
      <trkpt lat="43.72039" lon="3.51331">
        <ele>444.27</ele>
        <time>2016-03-06T12:59:02Z</time>
      </trkpt>
      <trkpt lat="43.7203" lon="3.51332">
        <ele>443.31</ele>
        <time>2016-03-06T12:59:10Z</time>
      </trkpt>
      <trkpt lat="43.72021" lon="3.51339">
        <ele>442.34</ele>
        <time>2016-03-06T12:59:18Z</time>
      </trkpt>
      <trkpt lat="43.72011" lon="3.51344">
        <ele>439.94</ele>
        <time>2016-03-06T12:59:26Z</time>
      </trkpt>
      <trkpt lat="43.72001" lon="3.51347">
        <ele>438.5</ele>
        <time>2016-03-06T12:59:33Z</time>
      </trkpt>
      <trkpt lat="43.71992" lon="3.51353">
        <ele>436.58</ele>
        <time>2016-03-06T12:59:41Z</time>
      </trkpt>
      <trkpt lat="43.71983" lon="3.51359">
        <ele>436.1</ele>
        <time>2016-03-06T12:59:49Z</time>
      </trkpt>
      <trkpt lat="43.71974" lon="3.51366">
        <ele>435.61</ele>
        <time>2016-03-06T12:59:57Z</time>
      </trkpt>
      <trkpt lat="43.71966" lon="3.51374">
        <ele>434.17</ele>
        <time>2016-03-06T13:00:06Z</time>
      </trkpt>
      <trkpt lat="43.71957" lon="3.51382">
        <ele>432.25</ele>
        <time>2016-03-06T13:00:15Z</time>
      </trkpt>
      <trkpt lat="43.71949" lon="3.5139">
        <ele>431.29</ele>
        <time>2016-03-06T13:00:23Z</time>
      </trkpt>
      <trkpt lat="43.7194" lon="3.51396">
        <ele>429.85</ele>
        <time>2016-03-06T13:00:31Z</time>
      </trkpt>
      <trkpt lat="43.71931" lon="3.51399">
        <ele>428.4</ele>
        <time>2016-03-06T13:00:38Z</time>
      </trkpt>
      <trkpt lat="43.71922" lon="3.51402">
        <ele>427.92</ele>
        <time>2016-03-06T13:00:45Z</time>
      </trkpt>
      <trkpt lat="43.71914" lon="3.51408">
        <ele>427.44</ele>
        <time>2016-03-06T13:00:52Z</time>
      </trkpt>
      <trkpt lat="43.71904" lon="3.5141">
        <ele>426.48</ele>
        <time>2016-03-06T13:01:00Z</time>
      </trkpt>
      <trkpt lat="43.71895" lon="3.51412">
        <ele>425.52</ele>
        <time>2016-03-06T13:01:07Z</time>
      </trkpt>
      <trkpt lat="43.71886" lon="3.51416">
        <ele>426</ele>
        <time>2016-03-06T13:01:15Z</time>
      </trkpt>
      <trkpt lat="43.71876" lon="3.5142">
        <ele>426</ele>
        <time>2016-03-06T13:01:23Z</time>
      </trkpt>
      <trkpt lat="43.71866" lon="3.51424">
        <ele>425.04</ele>
        <time>2016-03-06T13:01:31Z</time>
      </trkpt>
      <trkpt lat="43.71857" lon="3.51433">
        <ele>425.04</ele>
        <time>2016-03-06T13:01:39Z</time>
      </trkpt>
      <trkpt lat="43.7185" lon="3.51443">
        <ele>425.52</ele>
        <time>2016-03-06T13:01:47Z</time>
      </trkpt>
      <trkpt lat="43.71842" lon="3.51452">
        <ele>425.52</ele>
        <time>2016-03-06T13:01:55Z</time>
      </trkpt>
      <trkpt lat="43.71834" lon="3.51459">
        <ele>424.08</ele>
        <time>2016-03-06T13:02:03Z</time>
      </trkpt>
      <trkpt lat="43.71824" lon="3.51465">
        <ele>425.04</ele>
        <time>2016-03-06T13:02:11Z</time>
      </trkpt>
      <trkpt lat="43.71816" lon="3.51471">
        <ele>424.56</ele>
        <time>2016-03-06T13:02:18Z</time>
      </trkpt>
      <trkpt lat="43.71807" lon="3.51476">
        <ele>424.56</ele>
        <time>2016-03-06T13:02:25Z</time>
      </trkpt>
      <trkpt lat="43.71798" lon="3.51484">
        <ele>424.56</ele>
        <time>2016-03-06T13:02:33Z</time>
      </trkpt>
      <trkpt lat="43.71789" lon="3.5149">
        <ele>424.56</ele>
        <time>2016-03-06T13:02:41Z</time>
      </trkpt>
      <trkpt lat="43.71781" lon="3.51496">
        <ele>424.56</ele>
        <time>2016-03-06T13:02:48Z</time>
      </trkpt>
      <trkpt lat="43.71772" lon="3.51504">
        <ele>425.04</ele>
        <time>2016-03-06T13:02:56Z</time>
      </trkpt>
      <trkpt lat="43.71764" lon="3.51507">
        <ele>425.04</ele>
        <time>2016-03-06T13:03:04Z</time>
      </trkpt>
      <trkpt lat="43.71756" lon="3.51498">
        <ele>426.48</ele>
        <time>2016-03-06T13:03:13Z</time>
      </trkpt>
      <trkpt lat="43.71751" lon="3.51487">
        <ele>427.92</ele>
        <time>2016-03-06T13:03:23Z</time>
      </trkpt>
      <trkpt lat="43.71744" lon="3.51476">
        <ele>428.4</ele>
        <time>2016-03-06T13:03:33Z</time>
      </trkpt>
      <trkpt lat="43.71737" lon="3.51469">
        <ele>428.89</ele>
        <time>2016-03-06T13:03:42Z</time>
      </trkpt>
      <trkpt lat="43.71728" lon="3.51462">
        <ele>429.37</ele>
        <time>2016-03-06T13:03:51Z</time>
      </trkpt>
      <trkpt lat="43.71718" lon="3.51459">
        <ele>429.85</ele>
        <time>2016-03-06T13:04:00Z</time>
      </trkpt>
      <trkpt lat="43.71709" lon="3.51453">
        <ele>429.37</ele>
        <time>2016-03-06T13:04:11Z</time>
      </trkpt>
      <trkpt lat="43.71699" lon="3.51448">
        <ele>429.37</ele>
        <time>2016-03-06T13:04:20Z</time>
      </trkpt>
      <trkpt lat="43.71694" lon="3.51437">
        <ele>431.29</ele>
        <time>2016-03-06T13:04:30Z</time>
      </trkpt>
      <trkpt lat="43.71689" lon="3.51424">
        <ele>432.25</ele>
        <time>2016-03-06T13:04:41Z</time>
      </trkpt>
      <trkpt lat="43.71683" lon="3.51415">
        <ele>434.65</ele>
        <time>2016-03-06T13:04:53Z</time>
      </trkpt>
      <trkpt lat="43.7168" lon="3.51403">
        <ele>435.61</ele>
        <time>2016-03-06T13:05:03Z</time>
      </trkpt>
      <trkpt lat="43.71678" lon="3.51389">
        <ele>436.58</ele>
        <time>2016-03-06T13:05:13Z</time>
      </trkpt>
      <trkpt lat="43.71675" lon="3.51376">
        <ele>437.54</ele>
        <time>2016-03-06T13:05:23Z</time>
      </trkpt>
      <trkpt lat="43.7167" lon="3.51362">
        <ele>438.5</ele>
        <time>2016-03-06T13:05:34Z</time>
      </trkpt>
      <trkpt lat="43.71662" lon="3.51351">
        <ele>439.46</ele>
        <time>2016-03-06T13:05:45Z</time>
      </trkpt>
      <trkpt lat="43.71652" lon="3.51343">
        <ele>440.9</ele>
        <time>2016-03-06T13:05:55Z</time>
      </trkpt>
      <trkpt lat="43.71642" lon="3.51336">
        <ele>441.38</ele>
        <time>2016-03-06T13:06:04Z</time>
      </trkpt>
      <trkpt lat="43.71632" lon="3.51335">
        <ele>441.86</ele>
        <time>2016-03-06T13:06:14Z</time>
      </trkpt>
      <trkpt lat="43.71621" lon="3.51338">
        <ele>441.86</ele>
        <time>2016-03-06T13:06:23Z</time>
      </trkpt>
      <trkpt lat="43.7161" lon="3.51342">
        <ele>442.34</ele>
        <time>2016-03-06T13:06:32Z</time>
      </trkpt>
      <trkpt lat="43.716" lon="3.51345">
        <ele>442.34</ele>
        <time>2016-03-06T13:06:40Z</time>
      </trkpt>
      <trkpt lat="43.71591" lon="3.51348">
        <ele>443.31</ele>
        <time>2016-03-06T13:06:48Z</time>
      </trkpt>
      <trkpt lat="43.71581" lon="3.51349">
        <ele>442.82</ele>
        <time>2016-03-06T13:06:56Z</time>
      </trkpt>
      <trkpt lat="43.71571" lon="3.51352">
        <ele>442.82</ele>
        <time>2016-03-06T13:07:05Z</time>
      </trkpt>
      <trkpt lat="43.7156" lon="3.51354">
        <ele>442.34</ele>
        <time>2016-03-06T13:07:14Z</time>
      </trkpt>
      <trkpt lat="43.7155" lon="3.51352">
        <ele>442.34</ele>
        <time>2016-03-06T13:07:22Z</time>
      </trkpt>
      <trkpt lat="43.71541" lon="3.51349">
        <ele>442.34</ele>
        <time>2016-03-06T13:07:30Z</time>
      </trkpt>
      <trkpt lat="43.71532" lon="3.51345">
        <ele>441.86</ele>
        <time>2016-03-06T13:07:38Z</time>
      </trkpt>
      <trkpt lat="43.71523" lon="3.5134">
        <ele>441.86</ele>
        <time>2016-03-06T13:07:46Z</time>
      </trkpt>
      <trkpt lat="43.71514" lon="3.51336">
        <ele>440.9</ele>
        <time>2016-03-06T13:07:54Z</time>
      </trkpt>
      <trkpt lat="43.71504" lon="3.51331">
        <ele>440.42</ele>
        <time>2016-03-06T13:08:03Z</time>
      </trkpt>
      <trkpt lat="43.71495" lon="3.51323">
        <ele>439.94</ele>
        <time>2016-03-06T13:08:12Z</time>
      </trkpt>
      <trkpt lat="43.71487" lon="3.51315">
        <ele>438.5</ele>
        <time>2016-03-06T13:08:22Z</time>
      </trkpt>
      <trkpt lat="43.71477" lon="3.51307">
        <ele>437.06</ele>
        <time>2016-03-06T13:08:32Z</time>
      </trkpt>
      <trkpt lat="43.71469" lon="3.51298">
        <ele>436.1</ele>
        <time>2016-03-06T13:08:41Z</time>
      </trkpt>
      <trkpt lat="43.7146" lon="3.5129">
        <ele>435.13</ele>
        <time>2016-03-06T13:08:51Z</time>
      </trkpt>
      <trkpt lat="43.71451" lon="3.51281">
        <ele>433.69</ele>
        <time>2016-03-06T13:09:01Z</time>
      </trkpt>
      <trkpt lat="43.71443" lon="3.51272">
        <ele>432.25</ele>
        <time>2016-03-06T13:09:10Z</time>
      </trkpt>
      <trkpt lat="43.71432" lon="3.51266">
        <ele>429.85</ele>
        <time>2016-03-06T13:09:20Z</time>
      </trkpt>
      <trkpt lat="43.71423" lon="3.51258">
        <ele>428.4</ele>
        <time>2016-03-06T13:09:30Z</time>
      </trkpt>
      <trkpt lat="43.71415" lon="3.51247">
        <ele>426.48</ele>
        <time>2016-03-06T13:09:40Z</time>
      </trkpt>
      <trkpt lat="43.71408" lon="3.51238">
        <ele>425.04</ele>
        <time>2016-03-06T13:09:49Z</time>
      </trkpt>
      <trkpt lat="43.71401" lon="3.51227">
        <ele>424.56</ele>
        <time>2016-03-06T13:09:59Z</time>
      </trkpt>
      <trkpt lat="43.71394" lon="3.51216">
        <ele>424.08</ele>
        <time>2016-03-06T13:10:09Z</time>
      </trkpt>
      <trkpt lat="43.71386" lon="3.51204">
        <ele>422.16</ele>
        <time>2016-03-06T13:10:19Z</time>
      </trkpt>
      <trkpt lat="43.71378" lon="3.51198">
        <ele>421.19</ele>
        <time>2016-03-06T13:10:28Z</time>
      </trkpt>
      <trkpt lat="43.7137" lon="3.51191">
        <ele>416.39</ele>
        <time>2016-03-06T13:10:38Z</time>
      </trkpt>
      <trkpt lat="43.7136" lon="3.51185">
        <ele>416.87</ele>
        <time>2016-03-06T13:10:53Z</time>
      </trkpt>
      <trkpt lat="43.71353" lon="3.51178">
        <ele>414.95</ele>
        <time>2016-03-06T13:11:09Z</time>
      </trkpt>
      <trkpt lat="43.71343" lon="3.51174">
        <ele>413.98</ele>
        <time>2016-03-06T13:11:23Z</time>
      </trkpt>
      <trkpt lat="43.71333" lon="3.51174">
        <ele>410.14</ele>
        <time>2016-03-06T13:11:35Z</time>
      </trkpt>
      <trkpt lat="43.71322" lon="3.51172">
        <ele>407.26</ele>
        <time>2016-03-06T13:11:49Z</time>
      </trkpt>
      <trkpt lat="43.71311" lon="3.51174">
        <ele>405.33</ele>
        <time>2016-03-06T13:12:03Z</time>
      </trkpt>
      <trkpt lat="43.71301" lon="3.51175">
        <ele>402.45</ele>
        <time>2016-03-06T13:12:18Z</time>
      </trkpt>
      <trkpt lat="43.71292" lon="3.51169">
        <ele>398.6</ele>
        <time>2016-03-06T13:12:33Z</time>
      </trkpt>
      <trkpt lat="43.71283" lon="3.51162">
        <ele>397.16</ele>
        <time>2016-03-06T13:12:49Z</time>
      </trkpt>
      <trkpt lat="43.71273" lon="3.51165">
        <ele>394.76</ele>
        <time>2016-03-06T13:13:03Z</time>
      </trkpt>
      <trkpt lat="43.71262" lon="3.51164">
        <ele>393.32</ele>
        <time>2016-03-06T13:13:16Z</time>
      </trkpt>
      <trkpt lat="43.71255" lon="3.51156">
        <ele>390.91</ele>
        <time>2016-03-06T13:13:29Z</time>
      </trkpt>
      <trkpt lat="43.71255" lon="3.51142">
        <ele>389.47</ele>
        <time>2016-03-06T13:13:39Z</time>
      </trkpt>
      <trkpt lat="43.71251" lon="3.51128">
        <ele>388.03</ele>
        <time>2016-03-06T13:13:50Z</time>
      </trkpt>
      <trkpt lat="43.71241" lon="3.51121">
        <ele>385.15</ele>
        <time>2016-03-06T13:14:01Z</time>
      </trkpt>
      <trkpt lat="43.71236" lon="3.51109">
        <ele>383.22</ele>
        <time>2016-03-06T13:14:11Z</time>
      </trkpt>
      <trkpt lat="43.71228" lon="3.511">
        <ele>381.78</ele>
        <time>2016-03-06T13:14:23Z</time>
      </trkpt>
      <trkpt lat="43.71221" lon="3.51091">
        <ele>379.38</ele>
        <time>2016-03-06T13:14:35Z</time>
      </trkpt>
      <trkpt lat="43.71213" lon="3.51083">
        <ele>376.97</ele>
        <time>2016-03-06T13:14:48Z</time>
      </trkpt>
      <trkpt lat="43.71204" lon="3.51077">
        <ele>374.57</ele>
        <time>2016-03-06T13:15:02Z</time>
      </trkpt>
      <trkpt lat="43.71192" lon="3.5108">
        <ele>373.61</ele>
        <time>2016-03-06T13:15:13Z</time>
      </trkpt>
      <trkpt lat="43.71181" lon="3.51078">
        <ele>372.17</ele>
        <time>2016-03-06T13:15:26Z</time>
      </trkpt>
      <trkpt lat="43.71172" lon="3.51072">
        <ele>369.28</ele>
        <time>2016-03-06T13:15:39Z</time>
      </trkpt>
      <trkpt lat="43.71165" lon="3.51062">
        <ele>366.88</ele>
        <time>2016-03-06T13:15:52Z</time>
      </trkpt>
      <trkpt lat="43.71164" lon="3.5105">
        <ele>365.44</ele>
        <time>2016-03-06T13:16:06Z</time>
      </trkpt>
      <trkpt lat="43.71162" lon="3.51035">
        <ele>362.55</ele>
        <time>2016-03-06T13:16:22Z</time>
      </trkpt>
      <trkpt lat="43.71153" lon="3.51031">
        <ele>361.11</ele>
        <time>2016-03-06T13:16:36Z</time>
      </trkpt>
      <trkpt lat="43.71145" lon="3.51025">
        <ele>359.67</ele>
        <time>2016-03-06T13:16:45Z</time>
      </trkpt>
      <trkpt lat="43.7114" lon="3.51012">
        <ele>356.79</ele>
        <time>2016-03-06T13:16:56Z</time>
      </trkpt>
      <trkpt lat="43.71133" lon="3.51">
        <ele>354.38</ele>
        <time>2016-03-06T13:17:25Z</time>
      </trkpt>
      <trkpt lat="43.71126" lon="3.50992">
        <ele>353.42</ele>
        <time>2016-03-06T13:17:44Z</time>
      </trkpt>
      <trkpt lat="43.71119" lon="3.50982">
        <ele>353.9</ele>
        <time>2016-03-06T13:18:01Z</time>
      </trkpt>
      <trkpt lat="43.71111" lon="3.50971">
        <ele>349.1</ele>
        <time>2016-03-06T13:18:20Z</time>
      </trkpt>
      <trkpt lat="43.71108" lon="3.50956">
        <ele>347.65</ele>
        <time>2016-03-06T13:18:59Z</time>
      </trkpt>
      <trkpt lat="43.71103" lon="3.50945">
        <ele>348.62</ele>
        <time>2016-03-06T13:19:10Z</time>
      </trkpt>
      <trkpt lat="43.71092" lon="3.5094">
        <ele>349.1</ele>
        <time>2016-03-06T13:19:24Z</time>
      </trkpt>
      <trkpt lat="43.71082" lon="3.50935">
        <ele>347.65</ele>
        <time>2016-03-06T13:19:37Z</time>
      </trkpt>
      <trkpt lat="43.71074" lon="3.50923">
        <ele>346.21</ele>
        <time>2016-03-06T13:19:50Z</time>
      </trkpt>
      <trkpt lat="43.71063" lon="3.50922">
        <ele>342.85</ele>
        <time>2016-03-06T13:20:07Z</time>
      </trkpt>
      <trkpt lat="43.71055" lon="3.50916">
        <ele>339.48</ele>
        <time>2016-03-06T13:20:20Z</time>
      </trkpt>
      <trkpt lat="43.71051" lon="3.50907">
        <ele>337.56</ele>
        <time>2016-03-06T13:24:00Z</time>
      </trkpt>
      <trkpt lat="43.71052" lon="3.50896">
        <ele>337.08</ele>
        <time>2016-03-06T13:25:38Z</time>
      </trkpt>
      <trkpt lat="43.71055" lon="3.50881">
        <ele>337.08</ele>
        <time>2016-03-06T13:25:48Z</time>
      </trkpt>
      <trkpt lat="43.71053" lon="3.50872">
        <ele>336.12</ele>
        <time>2016-03-06T13:26:04Z</time>
      </trkpt>
      <trkpt lat="43.71045" lon="3.50862">
        <ele>333.71</ele>
        <time>2016-03-06T13:26:36Z</time>
      </trkpt>
      <trkpt lat="43.71038" lon="3.50851">
        <ele>331.79</ele>
        <time>2016-03-06T13:26:48Z</time>
      </trkpt>
      <trkpt lat="43.71029" lon="3.50854">
        <ele>330.83</ele>
        <time>2016-03-06T13:26:58Z</time>
      </trkpt>
      <trkpt lat="43.7102" lon="3.50845">
        <ele>329.39</ele>
        <time>2016-03-06T13:27:10Z</time>
      </trkpt>
      <trkpt lat="43.71012" lon="3.50835">
        <ele>329.87</ele>
        <time>2016-03-06T13:30:05Z</time>
      </trkpt>
      <trkpt lat="43.71006" lon="3.50824">
        <ele>329.87</ele>
        <time>2016-03-06T13:30:34Z</time>
      </trkpt>
      <trkpt lat="43.71" lon="3.50812">
        <ele>327.95</ele>
        <time>2016-03-06T13:30:55Z</time>
      </trkpt>
      <trkpt lat="43.70992" lon="3.50802">
        <ele>327.47</ele>
        <time>2016-03-06T13:31:06Z</time>
      </trkpt>
      <trkpt lat="43.70986" lon="3.50791">
        <ele>326.02</ele>
        <time>2016-03-06T13:31:16Z</time>
      </trkpt>
      <trkpt lat="43.70988" lon="3.50777">
        <ele>326.5</ele>
        <time>2016-03-06T13:31:26Z</time>
      </trkpt>
      <trkpt lat="43.70983" lon="3.50766">
        <ele>324.58</ele>
        <time>2016-03-06T13:31:36Z</time>
      </trkpt>
      <trkpt lat="43.70978" lon="3.50778">
        <ele>323.62</ele>
        <time>2016-03-06T13:31:45Z</time>
      </trkpt>
      <trkpt lat="43.70974" lon="3.50791">
        <ele>323.14</ele>
        <time>2016-03-06T13:31:53Z</time>
      </trkpt>
      <trkpt lat="43.7097" lon="3.50802">
        <ele>321.22</ele>
        <time>2016-03-06T13:32:01Z</time>
      </trkpt>
      <trkpt lat="43.70966" lon="3.50814">
        <ele>320.26</ele>
        <time>2016-03-06T13:32:09Z</time>
      </trkpt>
      <trkpt lat="43.70963" lon="3.50828">
        <ele>318.81</ele>
        <time>2016-03-06T13:32:18Z</time>
      </trkpt>
      <trkpt lat="43.70962" lon="3.50841">
        <ele>317.85</ele>
        <time>2016-03-06T13:32:27Z</time>
      </trkpt>
      <trkpt lat="43.70961" lon="3.50856">
        <ele>315.93</ele>
        <time>2016-03-06T13:32:36Z</time>
      </trkpt>
      <trkpt lat="43.70957" lon="3.50868">
        <ele>314.01</ele>
        <time>2016-03-06T13:32:45Z</time>
      </trkpt>
      <trkpt lat="43.70947" lon="3.50868">
        <ele>311.6</ele>
        <time>2016-03-06T13:32:54Z</time>
      </trkpt>
      <trkpt lat="43.70937" lon="3.50862">
        <ele>309.68</ele>
        <time>2016-03-06T13:33:05Z</time>
      </trkpt>
      <trkpt lat="43.70928" lon="3.50859">
        <ele>307.28</ele>
        <time>2016-03-06T13:33:18Z</time>
      </trkpt>
      <trkpt lat="43.70923" lon="3.50872">
        <ele>305.84</ele>
        <time>2016-03-06T13:33:28Z</time>
      </trkpt>
      <trkpt lat="43.7092" lon="3.50885">
        <ele>304.39</ele>
        <time>2016-03-06T13:33:37Z</time>
      </trkpt>
      <trkpt lat="43.70915" lon="3.50897">
        <ele>302.47</ele>
        <time>2016-03-06T13:33:47Z</time>
      </trkpt>
      <trkpt lat="43.70909" lon="3.50908">
        <ele>301.03</ele>
        <time>2016-03-06T13:33:56Z</time>
      </trkpt>
      <trkpt lat="43.70901" lon="3.50917">
        <ele>300.07</ele>
        <time>2016-03-06T13:34:04Z</time>
      </trkpt>
      <trkpt lat="43.70892" lon="3.50924">
        <ele>299.59</ele>
        <time>2016-03-06T13:34:12Z</time>
      </trkpt>
      <trkpt lat="43.70883" lon="3.50931">
        <ele>298.15</ele>
        <time>2016-03-06T13:34:22Z</time>
      </trkpt>
      <trkpt lat="43.70874" lon="3.5094">
        <ele>297.18</ele>
        <time>2016-03-06T13:34:32Z</time>
      </trkpt>
      <trkpt lat="43.70864" lon="3.50946">
        <ele>296.7</ele>
        <time>2016-03-06T13:34:42Z</time>
      </trkpt>
      <trkpt lat="43.70854" lon="3.50951">
        <ele>294.78</ele>
        <time>2016-03-06T13:34:53Z</time>
      </trkpt>
      <trkpt lat="43.70842" lon="3.50957">
        <ele>292.38</ele>
        <time>2016-03-06T13:35:20Z</time>
      </trkpt>
      <trkpt lat="43.70831" lon="3.50961">
        <ele>291.42</ele>
        <time>2016-03-06T13:35:32Z</time>
      </trkpt>
      <trkpt lat="43.70821" lon="3.50966">
        <ele>289.97</ele>
        <time>2016-03-06T13:35:43Z</time>
      </trkpt>
      <trkpt lat="43.70812" lon="3.50973">
        <ele>289.49</ele>
        <time>2016-03-06T13:35:54Z</time>
      </trkpt>
      <trkpt lat="43.70803" lon="3.50981">
        <ele>288.05</ele>
        <time>2016-03-06T13:36:05Z</time>
      </trkpt>
      <trkpt lat="43.70793" lon="3.50987">
        <ele>285.65</ele>
        <time>2016-03-06T13:36:17Z</time>
      </trkpt>
      <trkpt lat="43.70783" lon="3.50984">
        <ele>283.73</ele>
        <time>2016-03-06T13:36:28Z</time>
      </trkpt>
      <trkpt lat="43.70777" lon="3.50973">
        <ele>282.77</ele>
        <time>2016-03-06T13:36:39Z</time>
      </trkpt>
      <trkpt lat="43.70771" lon="3.5096">
        <ele>279.88</ele>
        <time>2016-03-06T13:36:50Z</time>
      </trkpt>
      <trkpt lat="43.70764" lon="3.50947">
        <ele>277.96</ele>
        <time>2016-03-06T13:37:03Z</time>
      </trkpt>
      <trkpt lat="43.70756" lon="3.50939">
        <ele>277.96</ele>
        <time>2016-03-06T13:37:13Z</time>
      </trkpt>
      <trkpt lat="43.7075" lon="3.50946">
        <ele>276.04</ele>
        <time>2016-03-06T13:37:25Z</time>
      </trkpt>
      <trkpt lat="43.7075" lon="3.50959">
        <ele>275.56</ele>
        <time>2016-03-06T13:37:37Z</time>
      </trkpt>
      <trkpt lat="43.70749" lon="3.50973">
        <ele>275.07</ele>
        <time>2016-03-06T13:37:50Z</time>
      </trkpt>
      <trkpt lat="43.70744" lon="3.50987">
        <ele>274.11</ele>
        <time>2016-03-06T13:38:04Z</time>
      </trkpt>
      <trkpt lat="43.70737" lon="3.50998">
        <ele>272.19</ele>
        <time>2016-03-06T13:38:45Z</time>
      </trkpt>
      <trkpt lat="43.70732" lon="3.51001">
        <ele>270.75</ele>
        <time>2016-03-06T13:39:26Z</time>
      </trkpt>
      <trkpt lat="43.70728" lon="3.5099">
        <ele>268.35</ele>
        <time>2016-03-06T13:39:39Z</time>
      </trkpt>
      <trkpt lat="43.7072" lon="3.50984">
        <ele>265.46</ele>
        <time>2016-03-06T13:39:54Z</time>
      </trkpt>
      <trkpt lat="43.70712" lon="3.50977">
        <ele>262.58</ele>
        <time>2016-03-06T13:40:09Z</time>
      </trkpt>
      <trkpt lat="43.70708" lon="3.50968">
        <ele>260.65</ele>
        <time>2016-03-06T13:40:24Z</time>
      </trkpt>
      <trkpt lat="43.70702" lon="3.50958">
        <ele>259.21</ele>
        <time>2016-03-06T13:40:38Z</time>
      </trkpt>
      <trkpt lat="43.70694" lon="3.50955">
        <ele>256.33</ele>
        <time>2016-03-06T13:41:10Z</time>
      </trkpt>
      <trkpt lat="43.70689" lon="3.50961">
        <ele>254.41</ele>
        <time>2016-03-06T13:41:42Z</time>
      </trkpt>
      <trkpt lat="43.70688" lon="3.50967">
        <ele>251.52</ele>
        <time>2016-03-06T13:42:20Z</time>
      </trkpt>
      <trkpt lat="43.70688" lon="3.50982">
        <ele>254.41</ele>
        <time>2016-03-06T13:42:33Z</time>
      </trkpt>
      <trkpt lat="43.70683" lon="3.50993">
        <ele>254.41</ele>
        <time>2016-03-06T13:42:47Z</time>
      </trkpt>
      <trkpt lat="43.70674" lon="3.50999">
        <ele>252</ele>
        <time>2016-03-06T13:43:24Z</time>
      </trkpt>
      <trkpt lat="43.70668" lon="3.51006">
        <ele>252.96</ele>
        <time>2016-03-06T13:43:42Z</time>
      </trkpt>
      <trkpt lat="43.70658" lon="3.5101">
        <ele>250.56</ele>
        <time>2016-03-06T13:44:00Z</time>
      </trkpt>
      <trkpt lat="43.70654" lon="3.51022">
        <ele>250.08</ele>
        <time>2016-03-06T13:44:16Z</time>
      </trkpt>
      <trkpt lat="43.70645" lon="3.51027">
        <ele>247.68</ele>
        <time>2016-03-06T13:44:33Z</time>
      </trkpt>
      <trkpt lat="43.70636" lon="3.51033">
        <ele>246.23</ele>
        <time>2016-03-06T13:44:45Z</time>
      </trkpt>
      <trkpt lat="43.70627" lon="3.51042">
        <ele>245.27</ele>
        <time>2016-03-06T13:44:58Z</time>
      </trkpt>
      <trkpt lat="43.70617" lon="3.51048">
        <ele>244.31</ele>
        <time>2016-03-06T13:45:09Z</time>
      </trkpt>
      <trkpt lat="43.70609" lon="3.51058">
        <ele>243.83</ele>
        <time>2016-03-06T13:46:00Z</time>
      </trkpt>
      <trkpt lat="43.70608" lon="3.51064">
        <ele>243.35</ele>
        <time>2016-03-06T13:47:25Z</time>
      </trkpt>
      <trkpt lat="43.70602" lon="3.51077">
        <ele>241.43</ele>
        <time>2016-03-06T13:47:38Z</time>
      </trkpt>
      <trkpt lat="43.70595" lon="3.51089">
        <ele>239.99</ele>
        <time>2016-03-06T13:47:48Z</time>
      </trkpt>
      <trkpt lat="43.70588" lon="3.51095">
        <ele>239.99</ele>
        <time>2016-03-06T13:48:04Z</time>
      </trkpt>
      <trkpt lat="43.70579" lon="3.51097">
        <ele>238.06</ele>
        <time>2016-03-06T13:48:13Z</time>
      </trkpt>
      <trkpt lat="43.70574" lon="3.51082">
        <ele>238.54</ele>
        <time>2016-03-06T13:48:36Z</time>
      </trkpt>
      <trkpt lat="43.70576" lon="3.51068">
        <ele>239.02</ele>
        <time>2016-03-06T13:48:46Z</time>
      </trkpt>
      <trkpt lat="43.70579" lon="3.51055">
        <ele>242.39</ele>
        <time>2016-03-06T13:48:59Z</time>
      </trkpt>
      <trkpt lat="43.70582" lon="3.51043">
        <ele>244.79</ele>
        <time>2016-03-06T13:49:14Z</time>
      </trkpt>
      <trkpt lat="43.70586" lon="3.51035">
        <ele>247.2</ele>
        <time>2016-03-06T13:49:35Z</time>
      </trkpt>
      <trkpt lat="43.70591" lon="3.51033">
        <ele>247.2</ele>
        <time>2016-03-06T13:50:16Z</time>
      </trkpt>
      <trkpt lat="43.7059" lon="3.51035">
        <ele>247.68</ele>
        <time>2016-03-06T13:50:40Z</time>
      </trkpt>
      <trkpt lat="43.70598" lon="3.51044">
        <ele>247.68</ele>
        <time>2016-03-06T13:50:50Z</time>
      </trkpt>
      <trkpt lat="43.70599" lon="3.51047">
        <ele>248.16</ele>
        <time>2016-03-06T13:51:44Z</time>
      </trkpt>
      <trkpt lat="43.70589" lon="3.51038">
        <ele>247.2</ele>
        <time>2016-03-06T13:51:54Z</time>
      </trkpt>
      <trkpt lat="43.7058" lon="3.51032">
        <ele>243.35</ele>
        <time>2016-03-06T13:52:06Z</time>
      </trkpt>
      <trkpt lat="43.70574" lon="3.51024">
        <ele>245.75</ele>
        <time>2016-03-06T13:52:22Z</time>
      </trkpt>
      <trkpt lat="43.70572" lon="3.51012">
        <ele>242.87</ele>
        <time>2016-03-06T13:52:31Z</time>
      </trkpt>
      <trkpt lat="43.7057" lon="3.50999">
        <ele>240.95</ele>
        <time>2016-03-06T13:52:46Z</time>
      </trkpt>
      <trkpt lat="43.70562" lon="3.50999">
        <ele>239.02</ele>
        <time>2016-03-06T13:53:44Z</time>
      </trkpt>
      <trkpt lat="43.70559" lon="3.51008">
        <ele>240.95</ele>
        <time>2016-03-06T13:54:02Z</time>
      </trkpt>
      <trkpt lat="43.70559" lon="3.51009">
        <ele>241.43</ele>
        <time>2016-03-06T13:59:11Z</time>
      </trkpt>
      <trkpt lat="43.70556" lon="3.51005">
        <ele>242.87</ele>
        <time>2016-03-06T14:03:21Z</time>
      </trkpt>
      <trkpt lat="43.70556" lon="3.51007">
        <ele>243.35</ele>
        <time>2016-03-06T14:06:51Z</time>
      </trkpt>
      <trkpt lat="43.70555" lon="3.51014">
        <ele>242.87</ele>
        <time>2016-03-06T14:07:12Z</time>
      </trkpt>
      <trkpt lat="43.70556" lon="3.51023">
        <ele>244.31</ele>
        <time>2016-03-06T14:08:20Z</time>
      </trkpt>
      <trkpt lat="43.70558" lon="3.51015">
        <ele>241.91</ele>
        <time>2016-03-06T14:08:31Z</time>
      </trkpt>
      <trkpt lat="43.7056" lon="3.51001">
        <ele>243.35</ele>
        <time>2016-03-06T14:08:40Z</time>
      </trkpt>
      <trkpt lat="43.70565" lon="3.5099">
        <ele>242.87</ele>
        <time>2016-03-06T14:08:53Z</time>
      </trkpt>
      <trkpt lat="43.7056" lon="3.50977">
        <ele>241.91</ele>
        <time>2016-03-06T14:09:05Z</time>
      </trkpt>
      <trkpt lat="43.70552" lon="3.50983">
        <ele>239.51</ele>
        <time>2016-03-06T14:09:24Z</time>
      </trkpt>
      <trkpt lat="43.70543" lon="3.50981">
        <ele>235.66</ele>
        <time>2016-03-06T14:09:33Z</time>
      </trkpt>
      <trkpt lat="43.70536" lon="3.50969">
        <ele>232.78</ele>
        <time>2016-03-06T14:09:44Z</time>
      </trkpt>
      <trkpt lat="43.70529" lon="3.50971">
        <ele>229.89</ele>
        <time>2016-03-06T14:09:58Z</time>
      </trkpt>
      <trkpt lat="43.70525" lon="3.50977">
        <ele>228.93</ele>
        <time>2016-03-06T14:10:09Z</time>
      </trkpt>
      <trkpt lat="43.70517" lon="3.50966">
        <ele>227.01</ele>
        <time>2016-03-06T14:10:36Z</time>
      </trkpt>
      <trkpt lat="43.70508" lon="3.50971">
        <ele>223.16</ele>
        <time>2016-03-06T14:11:02Z</time>
      </trkpt>
      <trkpt lat="43.705" lon="3.50965">
        <ele>220.28</ele>
        <time>2016-03-06T14:11:23Z</time>
      </trkpt>
      <trkpt lat="43.70494" lon="3.50956">
        <ele>217.4</ele>
        <time>2016-03-06T14:11:39Z</time>
      </trkpt>
      <trkpt lat="43.70486" lon="3.50948">
        <ele>213.07</ele>
        <time>2016-03-06T14:12:02Z</time>
      </trkpt>
      <trkpt lat="43.70477" lon="3.50947">
        <ele>209.22</ele>
        <time>2016-03-06T14:12:21Z</time>
      </trkpt>
      <trkpt lat="43.7047" lon="3.50944">
        <ele>203.46</ele>
        <time>2016-03-06T14:12:49Z</time>
      </trkpt>
      <trkpt lat="43.70463" lon="3.50945">
        <ele>197.69</ele>
        <time>2016-03-06T14:13:13Z</time>
      </trkpt>
      <trkpt lat="43.70457" lon="3.50946">
        <ele>192.88</ele>
        <time>2016-03-06T14:13:29Z</time>
      </trkpt>
      <trkpt lat="43.70448" lon="3.50944">
        <ele>187.59</ele>
        <time>2016-03-06T14:13:51Z</time>
      </trkpt>
      <trkpt lat="43.70441" lon="3.5094">
        <ele>183.75</ele>
        <time>2016-03-06T14:14:06Z</time>
      </trkpt>
      <trkpt lat="43.7044" lon="3.50926">
        <ele>183.27</ele>
        <time>2016-03-06T14:14:21Z</time>
      </trkpt>
      <trkpt lat="43.70432" lon="3.50923">
        <ele>181.35</ele>
        <time>2016-03-06T14:14:35Z</time>
      </trkpt>
      <trkpt lat="43.70424" lon="3.50923">
        <ele>180.38</ele>
        <time>2016-03-06T14:15:11Z</time>
      </trkpt>
      <trkpt lat="43.70419" lon="3.5091">
        <ele>179.42</ele>
        <time>2016-03-06T14:16:50Z</time>
      </trkpt>
      <trkpt lat="43.70421" lon="3.50896">
        <ele>178.94</ele>
        <time>2016-03-06T14:17:00Z</time>
      </trkpt>
      <trkpt lat="43.70423" lon="3.50881">
        <ele>177.02</ele>
        <time>2016-03-06T14:17:11Z</time>
      </trkpt>
      <trkpt lat="43.70424" lon="3.50866">
        <ele>176.54</ele>
        <time>2016-03-06T14:17:20Z</time>
      </trkpt>
      <trkpt lat="43.70422" lon="3.50854">
        <ele>174.14</ele>
        <time>2016-03-06T14:17:29Z</time>
      </trkpt>
      <trkpt lat="43.70418" lon="3.50841">
        <ele>173.66</ele>
        <time>2016-03-06T14:17:37Z</time>
      </trkpt>
      <trkpt lat="43.70414" lon="3.50829">
        <ele>172.21</ele>
        <time>2016-03-06T14:17:46Z</time>
      </trkpt>
      <trkpt lat="43.70409" lon="3.50813">
        <ele>170.77</ele>
        <time>2016-03-06T14:17:57Z</time>
      </trkpt>
      <trkpt lat="43.704" lon="3.50805">
        <ele>169.33</ele>
        <time>2016-03-06T14:18:08Z</time>
      </trkpt>
      <trkpt lat="43.70391" lon="3.50794">
        <ele>167.89</ele>
        <time>2016-03-06T14:18:18Z</time>
      </trkpt>
      <trkpt lat="43.70382" lon="3.50785">
        <ele>166.45</ele>
        <time>2016-03-06T14:18:28Z</time>
      </trkpt>
      <trkpt lat="43.70373" lon="3.50778">
        <ele>165.48</ele>
        <time>2016-03-06T14:18:38Z</time>
      </trkpt>
      <trkpt lat="43.70364" lon="3.50781">
        <ele>163.56</ele>
        <time>2016-03-06T14:18:50Z</time>
      </trkpt>
      <trkpt lat="43.70351" lon="3.50771">
        <ele>162.6</ele>
        <time>2016-03-06T14:19:00Z</time>
      </trkpt>
      <trkpt lat="43.70341" lon="3.50767">
        <ele>161.64</ele>
        <time>2016-03-06T14:19:09Z</time>
      </trkpt>
      <trkpt lat="43.70329" lon="3.50768">
        <ele>160.68</ele>
        <time>2016-03-06T14:19:19Z</time>
      </trkpt>
      <trkpt lat="43.70314" lon="3.50766">
        <ele>159.24</ele>
        <time>2016-03-06T14:19:30Z</time>
      </trkpt>
      <trkpt lat="43.70303" lon="3.50763">
        <ele>158.27</ele>
        <time>2016-03-06T14:19:39Z</time>
      </trkpt>
      <trkpt lat="43.70291" lon="3.5076">
        <ele>157.79</ele>
        <time>2016-03-06T14:19:49Z</time>
      </trkpt>
      <trkpt lat="43.70281" lon="3.50757">
        <ele>156.35</ele>
        <time>2016-03-06T14:19:58Z</time>
      </trkpt>
      <trkpt lat="43.70267" lon="3.50758">
        <ele>156.35</ele>
        <time>2016-03-06T14:20:07Z</time>
      </trkpt>
      <trkpt lat="43.70254" lon="3.50758">
        <ele>156.35</ele>
        <time>2016-03-06T14:20:16Z</time>
      </trkpt>
      <trkpt lat="43.70243" lon="3.50757">
        <ele>154.91</ele>
        <time>2016-03-06T14:20:25Z</time>
      </trkpt>
      <trkpt lat="43.70232" lon="3.50757">
        <ele>153.47</ele>
        <time>2016-03-06T14:20:33Z</time>
      </trkpt>
      <trkpt lat="43.7022" lon="3.50757">
        <ele>151.54</ele>
        <time>2016-03-06T14:20:42Z</time>
      </trkpt>
      <trkpt lat="43.70216" lon="3.50744">
        <ele>151.54</ele>
        <time>2016-03-06T14:20:51Z</time>
      </trkpt>
      <trkpt lat="43.70213" lon="3.50726">
        <ele>150.58</ele>
        <time>2016-03-06T14:21:02Z</time>
      </trkpt>
      <trkpt lat="43.70203" lon="3.50718">
        <ele>149.14</ele>
        <time>2016-03-06T14:21:12Z</time>
      </trkpt>
      <trkpt lat="43.70194" lon="3.5071">
        <ele>149.14</ele>
        <time>2016-03-06T14:21:23Z</time>
      </trkpt>
      <trkpt lat="43.70183" lon="3.50702">
        <ele>147.22</ele>
        <time>2016-03-06T14:21:32Z</time>
      </trkpt>
      <trkpt lat="43.70173" lon="3.50694">
        <ele>144.82</ele>
        <time>2016-03-06T14:21:41Z</time>
      </trkpt>
      <trkpt lat="43.70163" lon="3.50686">
        <ele>143.37</ele>
        <time>2016-03-06T14:21:50Z</time>
      </trkpt>
      <trkpt lat="43.70152" lon="3.50683">
        <ele>143.85</ele>
        <time>2016-03-06T14:21:58Z</time>
      </trkpt>
      <trkpt lat="43.70138" lon="3.5068">
        <ele>142.89</ele>
        <time>2016-03-06T14:22:06Z</time>
      </trkpt>
      <trkpt lat="43.70126" lon="3.5067">
        <ele>141.45</ele>
        <time>2016-03-06T14:22:15Z</time>
      </trkpt>
      <trkpt lat="43.70114" lon="3.50664">
        <ele>140.01</ele>
        <time>2016-03-06T14:22:24Z</time>
      </trkpt>
      <trkpt lat="43.70103" lon="3.50659">
        <ele>139.53</ele>
        <time>2016-03-06T14:22:33Z</time>
      </trkpt>
      <trkpt lat="43.70092" lon="3.50653">
        <ele>139.05</ele>
        <time>2016-03-06T14:22:41Z</time>
      </trkpt>
      <trkpt lat="43.70082" lon="3.5065">
        <ele>139.05</ele>
        <time>2016-03-06T14:22:49Z</time>
      </trkpt>
      <trkpt lat="43.70073" lon="3.50645">
        <ele>138.57</ele>
        <time>2016-03-06T14:22:58Z</time>
      </trkpt>
      <trkpt lat="43.70064" lon="3.50639">
        <ele>138.09</ele>
        <time>2016-03-06T14:23:06Z</time>
      </trkpt>
      <trkpt lat="43.70054" lon="3.50635">
        <ele>137.61</ele>
        <time>2016-03-06T14:23:14Z</time>
      </trkpt>
      <trkpt lat="43.70045" lon="3.5063">
        <ele>137.61</ele>
        <time>2016-03-06T14:23:22Z</time>
      </trkpt>
      <trkpt lat="43.70035" lon="3.50625">
        <ele>138.09</ele>
        <time>2016-03-06T14:23:30Z</time>
      </trkpt>
      <trkpt lat="43.70025" lon="3.50619">
        <ele>137.61</ele>
        <time>2016-03-06T14:23:38Z</time>
      </trkpt>
      <trkpt lat="43.70016" lon="3.50613">
        <ele>137.13</ele>
        <time>2016-03-06T14:23:46Z</time>
      </trkpt>
      <trkpt lat="43.70006" lon="3.50607">
        <ele>139.53</ele>
        <time>2016-03-06T14:23:54Z</time>
      </trkpt>
      <trkpt lat="43.69996" lon="3.50601">
        <ele>138.57</ele>
        <time>2016-03-06T14:24:02Z</time>
      </trkpt>
      <trkpt lat="43.69986" lon="3.50596">
        <ele>138.09</ele>
        <time>2016-03-06T14:24:10Z</time>
      </trkpt>
      <trkpt lat="43.69977" lon="3.50591">
        <ele>138.09</ele>
        <time>2016-03-06T14:24:18Z</time>
      </trkpt>
      <trkpt lat="43.69967" lon="3.50586">
        <ele>138.57</ele>
        <time>2016-03-06T14:24:27Z</time>
      </trkpt>
      <trkpt lat="43.69958" lon="3.5058">
        <ele>139.05</ele>
        <time>2016-03-06T14:24:35Z</time>
      </trkpt>
      <trkpt lat="43.69949" lon="3.50577">
        <ele>139.53</ele>
        <time>2016-03-06T14:24:42Z</time>
      </trkpt>
      <trkpt lat="43.69939" lon="3.50572">
        <ele>140.01</ele>
        <time>2016-03-06T14:24:50Z</time>
      </trkpt>
      <trkpt lat="43.6993" lon="3.50567">
        <ele>140.49</ele>
        <time>2016-03-06T14:24:58Z</time>
      </trkpt>
      <trkpt lat="43.69921" lon="3.50563">
        <ele>141.45</ele>
        <time>2016-03-06T14:25:06Z</time>
      </trkpt>
      <trkpt lat="43.69911" lon="3.50559">
        <ele>142.41</ele>
        <time>2016-03-06T14:25:14Z</time>
      </trkpt>
      <trkpt lat="43.69901" lon="3.50556">
        <ele>142.89</ele>
        <time>2016-03-06T14:25:23Z</time>
      </trkpt>
      <trkpt lat="43.69892" lon="3.50554">
        <ele>143.37</ele>
        <time>2016-03-06T14:25:34Z</time>
      </trkpt>
      <trkpt lat="43.69881" lon="3.50554">
        <ele>143.85</ele>
        <time>2016-03-06T14:25:43Z</time>
      </trkpt>
      <trkpt lat="43.69871" lon="3.50556">
        <ele>144.34</ele>
        <time>2016-03-06T14:25:52Z</time>
      </trkpt>
      <trkpt lat="43.69861" lon="3.50559">
        <ele>145.78</ele>
        <time>2016-03-06T14:26:01Z</time>
      </trkpt>
      <trkpt lat="43.69851" lon="3.50561">
        <ele>146.26</ele>
        <time>2016-03-06T14:26:10Z</time>
      </trkpt>
      <trkpt lat="43.69841" lon="3.50564">
        <ele>147.22</ele>
        <time>2016-03-06T14:26:20Z</time>
      </trkpt>
      <trkpt lat="43.6983" lon="3.50564">
        <ele>148.18</ele>
        <time>2016-03-06T14:26:31Z</time>
      </trkpt>
      <trkpt lat="43.6982" lon="3.50566">
        <ele>148.66</ele>
        <time>2016-03-06T14:26:41Z</time>
      </trkpt>
      <trkpt lat="43.69808" lon="3.50566">
        <ele>149.14</ele>
        <time>2016-03-06T14:26:51Z</time>
      </trkpt>
      <trkpt lat="43.69797" lon="3.50564">
        <ele>149.62</ele>
        <time>2016-03-06T14:27:00Z</time>
      </trkpt>
      <trkpt lat="43.69786" lon="3.50561">
        <ele>149.62</ele>
        <time>2016-03-06T14:27:09Z</time>
      </trkpt>
      <trkpt lat="43.69776" lon="3.50558">
        <ele>150.1</ele>
        <time>2016-03-06T14:27:18Z</time>
      </trkpt>
      <trkpt lat="43.69766" lon="3.50553">
        <ele>150.58</ele>
        <time>2016-03-06T14:27:29Z</time>
      </trkpt>
      <trkpt lat="43.69755" lon="3.5055">
        <ele>150.1</ele>
        <time>2016-03-06T14:27:39Z</time>
      </trkpt>
      <trkpt lat="43.69744" lon="3.50547">
        <ele>150.58</ele>
        <time>2016-03-06T14:27:48Z</time>
      </trkpt>
      <trkpt lat="43.69733" lon="3.50545">
        <ele>151.06</ele>
        <time>2016-03-06T14:27:58Z</time>
      </trkpt>
      <trkpt lat="43.69721" lon="3.50543">
        <ele>150.58</ele>
        <time>2016-03-06T14:28:07Z</time>
      </trkpt>
      <trkpt lat="43.6971" lon="3.50539">
        <ele>150.58</ele>
        <time>2016-03-06T14:28:18Z</time>
      </trkpt>
      <trkpt lat="43.69697" lon="3.50532">
        <ele>150.58</ele>
        <time>2016-03-06T14:28:43Z</time>
      </trkpt>
      <trkpt lat="43.697" lon="3.50524">
        <ele>151.06</ele>
        <time>2016-03-06T14:29:20Z</time>
      </trkpt>
      <trkpt lat="43.69708" lon="3.50532">
        <ele>151.06</ele>
        <time>2016-03-06T14:29:28Z</time>
      </trkpt>
      <trkpt lat="43.69709" lon="3.50538">
        <ele>150.58</ele>
        <time>2016-03-06T14:29:36Z</time>
      </trkpt>
      <trkpt lat="43.69704" lon="3.50533">
        <ele>150.58</ele>
        <time>2016-03-06T14:30:00Z</time>
      </trkpt>
      <trkpt lat="43.69704" lon="3.5052">
        <ele>150.58</ele>
        <time>2016-03-06T14:30:13Z</time>
      </trkpt>
      <trkpt lat="43.69707" lon="3.5053">
        <ele>151.06</ele>
        <time>2016-03-06T14:30:23Z</time>
      </trkpt>
      <trkpt lat="43.69687" lon="3.50541">
        <ele>150.58</ele>
        <time>2016-03-06T14:30:51Z</time>
      </trkpt>
    </trkseg>
  </trk>
</gpx>